<?xml version="1.0" encoding="UTF-8" standalone="no" ?>
<gpx xmlns="http://www.topografix.com/GPX/1/1" xmlns:xsi="http://www.w3.org/2001/XMLSchema-instance" xsi:schemaLocation="http://www.topografix.com/GPX/1/1 http://www.topografix.com/GPX/1/1/gpx.xsd" version="1.1" creator="VisuGPX - https://www.visugpx.com">
  <metadata>
    <name>Bédoin Cyclisme</name>
  </metadata>
  <trk>
    <name><![CDATA[Bédoin Cyclisme_1]]></name>
    <trkseg>
      <trkpt lat="44.13686" lon="5.31857">
        <ele>1111</ele>
        <time>2021-09-12T11:03:19Z</time>
      </trkpt>
      <trkpt lat="44.13687" lon="5.31857">
        <ele>1111</ele>
        <time>2021-09-12T11:03:27Z</time>
      </trkpt>
      <trkpt lat="44.13687" lon="5.31843">
        <ele>1111</ele>
        <time>2021-09-12T11:03:34Z</time>
      </trkpt>
      <trkpt lat="44.13687" lon="5.31834">
        <ele>1110.8</ele>
        <time>2021-09-12T11:03:36Z</time>
      </trkpt>
      <trkpt lat="44.1369" lon="5.31813">
        <ele>1110.6</ele>
        <time>2021-09-12T11:03:42Z</time>
      </trkpt>
      <trkpt lat="44.13676" lon="5.31742">
        <ele>1110.4</ele>
        <time>2021-09-12T11:03:59Z</time>
      </trkpt>
      <trkpt lat="44.13666" lon="5.31725">
        <ele>1109.6</ele>
        <time>2021-09-12T11:04:04Z</time>
      </trkpt>
      <trkpt lat="44.13617" lon="5.31686">
        <ele>1108.8</ele>
        <time>2021-09-12T11:04:19Z</time>
      </trkpt>
      <trkpt lat="44.13566" lon="5.31654">
        <ele>1109</ele>
        <time>2021-09-12T11:04:35Z</time>
      </trkpt>
      <trkpt lat="44.13556" lon="5.31649">
        <ele>1108.6</ele>
        <time>2021-09-12T11:04:39Z</time>
      </trkpt>
      <trkpt lat="44.13502" lon="5.31627">
        <ele>1108.6</ele>
        <time>2021-09-12T11:04:55Z</time>
      </trkpt>
      <trkpt lat="44.1345" lon="5.31606">
        <ele>1107.8</ele>
        <time>2021-09-12T11:05:12Z</time>
      </trkpt>
      <trkpt lat="44.13411" lon="5.31585">
        <ele>1107.4</ele>
        <time>2021-09-12T11:05:23Z</time>
      </trkpt>
      <trkpt lat="44.13379" lon="5.31561">
        <ele>1106.4</ele>
        <time>2021-09-12T11:05:32Z</time>
      </trkpt>
      <trkpt lat="44.13332" lon="5.31522">
        <ele>1105.4</ele>
        <time>2021-09-12T11:05:46Z</time>
      </trkpt>
      <trkpt lat="44.13329" lon="5.3152">
        <ele>1105.4</ele>
        <time>2021-09-12T11:05:47Z</time>
      </trkpt>
      <trkpt lat="44.13305" lon="5.31498">
        <ele>1104.8</ele>
        <time>2021-09-12T11:05:55Z</time>
      </trkpt>
      <trkpt lat="44.13297" lon="5.31491">
        <ele>1104.2</ele>
        <time>2021-09-12T11:05:57Z</time>
      </trkpt>
      <trkpt lat="44.13285" lon="5.31483">
        <ele>1103.2</ele>
        <time>2021-09-12T11:06:00Z</time>
      </trkpt>
      <trkpt lat="44.13277" lon="5.31477">
        <ele>1102.8</ele>
        <time>2021-09-12T11:06:02Z</time>
      </trkpt>
      <trkpt lat="44.13264" lon="5.3147">
        <ele>1102.2</ele>
        <time>2021-09-12T11:06:05Z</time>
      </trkpt>
      <trkpt lat="44.13244" lon="5.31458">
        <ele>1101.2</ele>
        <time>2021-09-12T11:06:10Z</time>
      </trkpt>
      <trkpt lat="44.1324" lon="5.31455">
        <ele>1101</ele>
        <time>2021-09-12T11:06:11Z</time>
      </trkpt>
      <trkpt lat="44.13222" lon="5.31442">
        <ele>1099.8</ele>
        <time>2021-09-12T11:06:15Z</time>
      </trkpt>
      <trkpt lat="44.13201" lon="5.31419">
        <ele>1098.6</ele>
        <time>2021-09-12T11:06:21Z</time>
      </trkpt>
      <trkpt lat="44.13198" lon="5.31415">
        <ele>1098.4</ele>
        <time>2021-09-12T11:06:22Z</time>
      </trkpt>
      <trkpt lat="44.13182" lon="5.31386">
        <ele>1097.4</ele>
        <time>2021-09-12T11:06:28Z</time>
      </trkpt>
      <trkpt lat="44.13167" lon="5.31361">
        <ele>1096.8</ele>
        <time>2021-09-12T11:06:33Z</time>
      </trkpt>
      <trkpt lat="44.13159" lon="5.31352">
        <ele>1096.4</ele>
        <time>2021-09-12T11:06:35Z</time>
      </trkpt>
      <trkpt lat="44.13138" lon="5.31332">
        <ele>1095.4</ele>
        <time>2021-09-12T11:06:40Z</time>
      </trkpt>
      <trkpt lat="44.131" lon="5.31298">
        <ele>1094</ele>
        <time>2021-09-12T11:06:52Z</time>
      </trkpt>
      <trkpt lat="44.13077" lon="5.31281">
        <ele>1093</ele>
        <time>2021-09-12T11:06:59Z</time>
      </trkpt>
      <trkpt lat="44.13056" lon="5.31266">
        <ele>1092.6</ele>
        <time>2021-09-12T11:07:04Z</time>
      </trkpt>
      <trkpt lat="44.13048" lon="5.3126">
        <ele>1092.6</ele>
        <time>2021-09-12T11:07:06Z</time>
      </trkpt>
      <trkpt lat="44.13034" lon="5.31251">
        <ele>1091.8</ele>
        <time>2021-09-12T11:07:09Z</time>
      </trkpt>
      <trkpt lat="44.13023" lon="5.31245">
        <ele>1090.4</ele>
        <time>2021-09-12T11:07:11Z</time>
      </trkpt>
      <trkpt lat="44.13006" lon="5.31235">
        <ele>1089.2</ele>
        <time>2021-09-12T11:07:14Z</time>
      </trkpt>
      <trkpt lat="44.12977" lon="5.3122">
        <ele>1088.2</ele>
        <time>2021-09-12T11:07:19Z</time>
      </trkpt>
      <trkpt lat="44.12946" lon="5.312">
        <ele>1086.8</ele>
        <time>2021-09-12T11:07:25Z</time>
      </trkpt>
      <trkpt lat="44.12933" lon="5.31189">
        <ele>1085.6</ele>
        <time>2021-09-12T11:07:29Z</time>
      </trkpt>
      <trkpt lat="44.1291" lon="5.31185">
        <ele>1084.6</ele>
        <time>2021-09-12T11:07:38Z</time>
      </trkpt>
      <trkpt lat="44.12885" lon="5.31175">
        <ele>1083.6</ele>
        <time>2021-09-12T11:07:45Z</time>
      </trkpt>
      <trkpt lat="44.12882" lon="5.31171">
        <ele>1083</ele>
        <time>2021-09-12T11:07:46Z</time>
      </trkpt>
      <trkpt lat="44.12876" lon="5.31156">
        <ele>1082</ele>
        <time>2021-09-12T11:07:49Z</time>
      </trkpt>
      <trkpt lat="44.12873" lon="5.31121">
        <ele>1080.6</ele>
        <time>2021-09-12T11:07:55Z</time>
      </trkpt>
      <trkpt lat="44.12874" lon="5.31096">
        <ele>1079.6</ele>
        <time>2021-09-12T11:07:59Z</time>
      </trkpt>
      <trkpt lat="44.12874" lon="5.31072">
        <ele>1078.4</ele>
        <time>2021-09-12T11:08:02Z</time>
      </trkpt>
      <trkpt lat="44.12874" lon="5.31066">
        <ele>1077.8</ele>
        <time>2021-09-12T11:08:03Z</time>
      </trkpt>
      <trkpt lat="44.12875" lon="5.31054">
        <ele>1077</ele>
        <time>2021-09-12T11:08:05Z</time>
      </trkpt>
      <trkpt lat="44.12876" lon="5.31041">
        <ele>1076.2</ele>
        <time>2021-09-12T11:08:07Z</time>
      </trkpt>
      <trkpt lat="44.12876" lon="5.31034">
        <ele>1075.8</ele>
        <time>2021-09-12T11:08:08Z</time>
      </trkpt>
      <trkpt lat="44.12878" lon="5.30999">
        <ele>1074.8</ele>
        <time>2021-09-12T11:08:13Z</time>
      </trkpt>
      <trkpt lat="44.12886" lon="5.30959">
        <ele>1073.4</ele>
        <time>2021-09-12T11:08:19Z</time>
      </trkpt>
      <trkpt lat="44.1289" lon="5.30944">
        <ele>1072.4</ele>
        <time>2021-09-12T11:08:21Z</time>
      </trkpt>
      <trkpt lat="44.12892" lon="5.30936">
        <ele>1071.8</ele>
        <time>2021-09-12T11:08:22Z</time>
      </trkpt>
      <trkpt lat="44.12897" lon="5.3092">
        <ele>1070.8</ele>
        <time>2021-09-12T11:08:24Z</time>
      </trkpt>
      <trkpt lat="44.12902" lon="5.30904">
        <ele>1069.6</ele>
        <time>2021-09-12T11:08:26Z</time>
      </trkpt>
      <trkpt lat="44.12908" lon="5.3088">
        <ele>1068.4</ele>
        <time>2021-09-12T11:08:29Z</time>
      </trkpt>
      <trkpt lat="44.12909" lon="5.30871">
        <ele>1068.2</ele>
        <time>2021-09-12T11:08:30Z</time>
      </trkpt>
      <trkpt lat="44.12909" lon="5.30833">
        <ele>1066.6</ele>
        <time>2021-09-12T11:08:34Z</time>
      </trkpt>
      <trkpt lat="44.12908" lon="5.30824">
        <ele>1066</ele>
        <time>2021-09-12T11:08:35Z</time>
      </trkpt>
      <trkpt lat="44.12907" lon="5.30816">
        <ele>1065.6</ele>
        <time>2021-09-12T11:08:36Z</time>
      </trkpt>
      <trkpt lat="44.12901" lon="5.30789">
        <ele>1064.4</ele>
        <time>2021-09-12T11:08:41Z</time>
      </trkpt>
      <trkpt lat="44.12896" lon="5.30776">
        <ele>1063.4</ele>
        <time>2021-09-12T11:08:44Z</time>
      </trkpt>
      <trkpt lat="44.1289" lon="5.3075">
        <ele>1062.2</ele>
        <time>2021-09-12T11:08:50Z</time>
      </trkpt>
      <trkpt lat="44.12875" lon="5.30724">
        <ele>1061.4</ele>
        <time>2021-09-12T11:09:00Z</time>
      </trkpt>
      <trkpt lat="44.12872" lon="5.30718">
        <ele>1061.4</ele>
        <time>2021-09-12T11:09:02Z</time>
      </trkpt>
      <trkpt lat="44.12866" lon="5.30712">
        <ele>1061</ele>
        <time>2021-09-12T11:09:04Z</time>
      </trkpt>
      <trkpt lat="44.12853" lon="5.307">
        <ele>1060</ele>
        <time>2021-09-12T11:09:07Z</time>
      </trkpt>
      <trkpt lat="44.12847" lon="5.30697">
        <ele>1059.6</ele>
        <time>2021-09-12T11:09:08Z</time>
      </trkpt>
      <trkpt lat="44.1283" lon="5.30689">
        <ele>1058.2</ele>
        <time>2021-09-12T11:09:11Z</time>
      </trkpt>
      <trkpt lat="44.12818" lon="5.30682">
        <ele>1057</ele>
        <time>2021-09-12T11:09:13Z</time>
      </trkpt>
      <trkpt lat="44.12812" lon="5.30679">
        <ele>1056.4</ele>
        <time>2021-09-12T11:09:14Z</time>
      </trkpt>
      <trkpt lat="44.12806" lon="5.30674">
        <ele>1056</ele>
        <time>2021-09-12T11:09:15Z</time>
      </trkpt>
      <trkpt lat="44.12796" lon="5.30666">
        <ele>1054.8</ele>
        <time>2021-09-12T11:09:17Z</time>
      </trkpt>
      <trkpt lat="44.12791" lon="5.30661">
        <ele>1054.2</ele>
        <time>2021-09-12T11:09:18Z</time>
      </trkpt>
      <trkpt lat="44.12785" lon="5.30656">
        <ele>1053.4</ele>
        <time>2021-09-12T11:09:19Z</time>
      </trkpt>
      <trkpt lat="44.12774" lon="5.30644">
        <ele>1051.8</ele>
        <time>2021-09-12T11:09:21Z</time>
      </trkpt>
      <trkpt lat="44.12768" lon="5.3064">
        <ele>1051.2</ele>
        <time>2021-09-12T11:09:22Z</time>
      </trkpt>
      <trkpt lat="44.1276" lon="5.30633">
        <ele>1050.6</ele>
        <time>2021-09-12T11:09:24Z</time>
      </trkpt>
      <trkpt lat="44.12713" lon="5.306">
        <ele>1049.6</ele>
        <time>2021-09-12T11:09:33Z</time>
      </trkpt>
      <trkpt lat="44.12699" lon="5.30592">
        <ele>1048.4</ele>
        <time>2021-09-12T11:09:35Z</time>
      </trkpt>
      <trkpt lat="44.12685" lon="5.3058">
        <ele>1046.6</ele>
        <time>2021-09-12T11:09:37Z</time>
      </trkpt>
      <trkpt lat="44.12673" lon="5.30565">
        <ele>1045.6</ele>
        <time>2021-09-12T11:09:39Z</time>
      </trkpt>
      <trkpt lat="44.12664" lon="5.30549">
        <ele>1044.2</ele>
        <time>2021-09-12T11:09:41Z</time>
      </trkpt>
      <trkpt lat="44.12659" lon="5.3054">
        <ele>1043.6</ele>
        <time>2021-09-12T11:09:42Z</time>
      </trkpt>
      <trkpt lat="44.12656" lon="5.30532">
        <ele>1043.2</ele>
        <time>2021-09-12T11:09:43Z</time>
      </trkpt>
      <trkpt lat="44.12646" lon="5.30504">
        <ele>1041.6</ele>
        <time>2021-09-12T11:09:46Z</time>
      </trkpt>
      <trkpt lat="44.12643" lon="5.30478">
        <ele>1040.4</ele>
        <time>2021-09-12T11:09:48Z</time>
      </trkpt>
      <trkpt lat="44.12638" lon="5.30452">
        <ele>1039.6</ele>
        <time>2021-09-12T11:09:50Z</time>
      </trkpt>
      <trkpt lat="44.12637" lon="5.3044">
        <ele>1039.2</ele>
        <time>2021-09-12T11:09:51Z</time>
      </trkpt>
      <trkpt lat="44.12636" lon="5.30416">
        <ele>1038.2</ele>
        <time>2021-09-12T11:09:53Z</time>
      </trkpt>
      <trkpt lat="44.12635" lon="5.30391">
        <ele>1036.8</ele>
        <time>2021-09-12T11:09:55Z</time>
      </trkpt>
      <trkpt lat="44.12633" lon="5.30368">
        <ele>1035.4</ele>
        <time>2021-09-12T11:09:57Z</time>
      </trkpt>
      <trkpt lat="44.12631" lon="5.30345">
        <ele>1033.8</ele>
        <time>2021-09-12T11:09:59Z</time>
      </trkpt>
      <trkpt lat="44.12632" lon="5.30334">
        <ele>1033.2</ele>
        <time>2021-09-12T11:10:00Z</time>
      </trkpt>
      <trkpt lat="44.12633" lon="5.30323">
        <ele>1032.6</ele>
        <time>2021-09-12T11:10:01Z</time>
      </trkpt>
      <trkpt lat="44.12637" lon="5.30293">
        <ele>1031.6</ele>
        <time>2021-09-12T11:10:04Z</time>
      </trkpt>
      <trkpt lat="44.1264" lon="5.30266">
        <ele>1030.6</ele>
        <time>2021-09-12T11:10:08Z</time>
      </trkpt>
      <trkpt lat="44.12641" lon="5.30219">
        <ele>1029.4</ele>
        <time>2021-09-12T11:10:18Z</time>
      </trkpt>
      <trkpt lat="44.12645" lon="5.30205">
        <ele>1028.4</ele>
        <time>2021-09-12T11:10:21Z</time>
      </trkpt>
      <trkpt lat="44.1265" lon="5.30184">
        <ele>1027</ele>
        <time>2021-09-12T11:10:24Z</time>
      </trkpt>
      <trkpt lat="44.12654" lon="5.30171">
        <ele>1026.6</ele>
        <time>2021-09-12T11:10:26Z</time>
      </trkpt>
      <trkpt lat="44.12661" lon="5.3016">
        <ele>1026.6</ele>
        <time>2021-09-12T11:10:28Z</time>
      </trkpt>
      <trkpt lat="44.12664" lon="5.30156">
        <ele>1025.8</ele>
        <time>2021-09-12T11:10:29Z</time>
      </trkpt>
      <trkpt lat="44.12668" lon="5.30154">
        <ele>1024.8</ele>
        <time>2021-09-12T11:10:30Z</time>
      </trkpt>
      <trkpt lat="44.12677" lon="5.30152">
        <ele>1022.8</ele>
        <time>2021-09-12T11:10:32Z</time>
      </trkpt>
      <trkpt lat="44.12688" lon="5.30151">
        <ele>1021.2</ele>
        <time>2021-09-12T11:10:34Z</time>
      </trkpt>
      <trkpt lat="44.12697" lon="5.30152">
        <ele>1019.4</ele>
        <time>2021-09-12T11:10:36Z</time>
      </trkpt>
      <trkpt lat="44.12702" lon="5.30152">
        <ele>1017.8</ele>
        <time>2021-09-12T11:10:38Z</time>
      </trkpt>
      <trkpt lat="44.12703" lon="5.30147">
        <ele>1016.8</ele>
        <time>2021-09-12T11:10:40Z</time>
      </trkpt>
      <trkpt lat="44.12701" lon="5.30138">
        <ele>1015.8</ele>
        <time>2021-09-12T11:10:42Z</time>
      </trkpt>
      <trkpt lat="44.127" lon="5.30134">
        <ele>1015.4</ele>
        <time>2021-09-12T11:10:43Z</time>
      </trkpt>
      <trkpt lat="44.127" lon="5.30127">
        <ele>1014.2</ele>
        <time>2021-09-12T11:10:45Z</time>
      </trkpt>
      <trkpt lat="44.127" lon="5.30118">
        <ele>1012.8</ele>
        <time>2021-09-12T11:10:47Z</time>
      </trkpt>
      <trkpt lat="44.12702" lon="5.30108">
        <ele>1011.6</ele>
        <time>2021-09-12T11:10:49Z</time>
      </trkpt>
      <trkpt lat="44.12703" lon="5.30101">
        <ele>1010.6</ele>
        <time>2021-09-12T11:10:51Z</time>
      </trkpt>
      <trkpt lat="44.1271" lon="5.30069">
        <ele>1009.6</ele>
        <time>2021-09-12T11:11:10Z</time>
      </trkpt>
      <trkpt lat="44.12711" lon="5.30048">
        <ele>1009.8</ele>
        <time>2021-09-12T11:11:45Z</time>
      </trkpt>
      <trkpt lat="44.12708" lon="5.29972">
        <ele>1009.4</ele>
        <time>2021-09-12T11:12:09Z</time>
      </trkpt>
      <trkpt lat="44.12707" lon="5.2995">
        <ele>1008.2</ele>
        <time>2021-09-12T11:12:15Z</time>
      </trkpt>
      <trkpt lat="44.12704" lon="5.2994">
        <ele>1007.2</ele>
        <time>2021-09-12T11:12:19Z</time>
      </trkpt>
      <trkpt lat="44.12702" lon="5.29935">
        <ele>1006.8</ele>
        <time>2021-09-12T11:12:21Z</time>
      </trkpt>
      <trkpt lat="44.12699" lon="5.29923">
        <ele>1006.2</ele>
        <time>2021-09-12T11:12:25Z</time>
      </trkpt>
      <trkpt lat="44.12695" lon="5.29903">
        <ele>1005</ele>
        <time>2021-09-12T11:12:30Z</time>
      </trkpt>
      <trkpt lat="44.12692" lon="5.29884">
        <ele>1004.8</ele>
        <time>2021-09-12T11:12:35Z</time>
      </trkpt>
      <trkpt lat="44.12691" lon="5.29877">
        <ele>1005</ele>
        <time>2021-09-12T11:12:37Z</time>
      </trkpt>
      <trkpt lat="44.12691" lon="5.29839">
        <ele>1006</ele>
        <time>2021-09-12T11:12:48Z</time>
      </trkpt>
      <trkpt lat="44.12692" lon="5.29814">
        <ele>1007.2</ele>
        <time>2021-09-12T11:12:57Z</time>
      </trkpt>
      <trkpt lat="44.12693" lon="5.29805">
        <ele>1007.4</ele>
        <time>2021-09-12T11:13:00Z</time>
      </trkpt>
      <trkpt lat="44.12696" lon="5.29777">
        <ele>1007.8</ele>
        <time>2021-09-12T11:13:09Z</time>
      </trkpt>
      <trkpt lat="44.12697" lon="5.29772">
        <ele>1008.2</ele>
        <time>2021-09-12T11:13:11Z</time>
      </trkpt>
      <trkpt lat="44.12703" lon="5.29739">
        <ele>1009</ele>
        <time>2021-09-12T11:13:23Z</time>
      </trkpt>
      <trkpt lat="44.1271" lon="5.29711">
        <ele>1008.2</ele>
        <time>2021-09-12T11:13:32Z</time>
      </trkpt>
      <trkpt lat="44.12713" lon="5.29687">
        <ele>1007</ele>
        <time>2021-09-12T11:13:38Z</time>
      </trkpt>
      <trkpt lat="44.12714" lon="5.29678">
        <ele>1005.8</ele>
        <time>2021-09-12T11:13:41Z</time>
      </trkpt>
      <trkpt lat="44.12711" lon="5.29673">
        <ele>1005.2</ele>
        <time>2021-09-12T11:13:45Z</time>
      </trkpt>
      <trkpt lat="44.12711" lon="5.29668">
        <ele>1005</ele>
        <time>2021-09-12T11:13:48Z</time>
      </trkpt>
      <trkpt lat="44.12713" lon="5.29667">
        <ele>1005</ele>
        <time>2021-09-12T11:13:50Z</time>
      </trkpt>
      <trkpt lat="44.12715" lon="5.29667">
        <ele>1004.8</ele>
        <time>2021-09-12T11:13:51Z</time>
      </trkpt>
      <trkpt lat="44.12716" lon="5.29665">
        <ele>1004.8</ele>
        <time>2021-09-12T11:13:52Z</time>
      </trkpt>
      <trkpt lat="44.12728" lon="5.29635">
        <ele>1003.6</ele>
        <time>2021-09-12T11:13:59Z</time>
      </trkpt>
      <trkpt lat="44.12731" lon="5.29628">
        <ele>1002.2</ele>
        <time>2021-09-12T11:14:01Z</time>
      </trkpt>
      <trkpt lat="44.12733" lon="5.29621">
        <ele>1001.2</ele>
        <time>2021-09-12T11:14:03Z</time>
      </trkpt>
      <trkpt lat="44.12734" lon="5.29609">
        <ele>1000.2</ele>
        <time>2021-09-12T11:14:07Z</time>
      </trkpt>
      <trkpt lat="44.12736" lon="5.29607">
        <ele>1000</ele>
        <time>2021-09-12T11:14:09Z</time>
      </trkpt>
      <trkpt lat="44.12746" lon="5.29589">
        <ele>998.6</ele>
        <time>2021-09-12T11:14:19Z</time>
      </trkpt>
      <trkpt lat="44.12748" lon="5.29574">
        <ele>997.4</ele>
        <time>2021-09-12T11:14:22Z</time>
      </trkpt>
      <trkpt lat="44.12749" lon="5.29563">
        <ele>995.8</ele>
        <time>2021-09-12T11:14:24Z</time>
      </trkpt>
      <trkpt lat="44.12751" lon="5.29552">
        <ele>994.6</ele>
        <time>2021-09-12T11:14:26Z</time>
      </trkpt>
      <trkpt lat="44.12752" lon="5.29544">
        <ele>993.4</ele>
        <time>2021-09-12T11:14:28Z</time>
      </trkpt>
      <trkpt lat="44.12753" lon="5.29541">
        <ele>992.4</ele>
        <time>2021-09-12T11:14:31Z</time>
      </trkpt>
      <trkpt lat="44.12757" lon="5.29528">
        <ele>991.6</ele>
        <time>2021-09-12T11:14:50Z</time>
      </trkpt>
      <trkpt lat="44.12756" lon="5.2952">
        <ele>991.6</ele>
        <time>2021-09-12T11:14:52Z</time>
      </trkpt>
      <trkpt lat="44.12758" lon="5.2951">
        <ele>991</ele>
        <time>2021-09-12T11:14:54Z</time>
      </trkpt>
      <trkpt lat="44.12761" lon="5.29497">
        <ele>990</ele>
        <time>2021-09-12T11:14:57Z</time>
      </trkpt>
      <trkpt lat="44.12764" lon="5.29489">
        <ele>989</ele>
        <time>2021-09-12T11:14:59Z</time>
      </trkpt>
      <trkpt lat="44.12768" lon="5.29479">
        <ele>987.6</ele>
        <time>2021-09-12T11:15:02Z</time>
      </trkpt>
      <trkpt lat="44.12769" lon="5.29468">
        <ele>986.4</ele>
        <time>2021-09-12T11:15:06Z</time>
      </trkpt>
      <trkpt lat="44.1277" lon="5.29454">
        <ele>985.2</ele>
        <time>2021-09-12T11:15:10Z</time>
      </trkpt>
      <trkpt lat="44.12769" lon="5.2943">
        <ele>983.6</ele>
        <time>2021-09-12T11:15:14Z</time>
      </trkpt>
      <trkpt lat="44.12768" lon="5.29421">
        <ele>982.2</ele>
        <time>2021-09-12T11:15:16Z</time>
      </trkpt>
      <trkpt lat="44.12766" lon="5.29409">
        <ele>981.2</ele>
        <time>2021-09-12T11:15:18Z</time>
      </trkpt>
      <trkpt lat="44.12765" lon="5.29395">
        <ele>980</ele>
        <time>2021-09-12T11:15:20Z</time>
      </trkpt>
      <trkpt lat="44.12765" lon="5.2938">
        <ele>979</ele>
        <time>2021-09-12T11:15:22Z</time>
      </trkpt>
      <trkpt lat="44.12765" lon="5.29373">
        <ele>978.6</ele>
        <time>2021-09-12T11:15:23Z</time>
      </trkpt>
      <trkpt lat="44.12755" lon="5.29298">
        <ele>979</ele>
        <time>2021-09-12T11:15:40Z</time>
      </trkpt>
      <trkpt lat="44.12756" lon="5.29288">
        <ele>979.6</ele>
        <time>2021-09-12T11:15:43Z</time>
      </trkpt>
      <trkpt lat="44.12758" lon="5.29266">
        <ele>980.8</ele>
        <time>2021-09-12T11:15:50Z</time>
      </trkpt>
      <trkpt lat="44.1276" lon="5.29238">
        <ele>981.8</ele>
        <time>2021-09-12T11:16:00Z</time>
      </trkpt>
      <trkpt lat="44.1276" lon="5.29235">
        <ele>981.8</ele>
        <time>2021-09-12T11:16:01Z</time>
      </trkpt>
      <trkpt lat="44.12766" lon="5.29224">
        <ele>983</ele>
        <time>2021-09-12T11:16:06Z</time>
      </trkpt>
      <trkpt lat="44.12781" lon="5.2917">
        <ele>981.8</ele>
        <time>2021-09-12T11:16:24Z</time>
      </trkpt>
      <trkpt lat="44.1279" lon="5.29144">
        <ele>980.8</ele>
        <time>2021-09-12T11:16:31Z</time>
      </trkpt>
      <trkpt lat="44.12791" lon="5.29136">
        <ele>980.2</ele>
        <time>2021-09-12T11:16:33Z</time>
      </trkpt>
      <trkpt lat="44.12789" lon="5.29124">
        <ele>979.6</ele>
        <time>2021-09-12T11:16:36Z</time>
      </trkpt>
      <trkpt lat="44.12789" lon="5.29119">
        <ele>979.2</ele>
        <time>2021-09-12T11:16:37Z</time>
      </trkpt>
      <trkpt lat="44.12791" lon="5.2911">
        <ele>978.2</ele>
        <time>2021-09-12T11:16:39Z</time>
      </trkpt>
      <trkpt lat="44.12795" lon="5.29096">
        <ele>976.8</ele>
        <time>2021-09-12T11:16:42Z</time>
      </trkpt>
      <trkpt lat="44.12796" lon="5.29086">
        <ele>975.8</ele>
        <time>2021-09-12T11:16:44Z</time>
      </trkpt>
      <trkpt lat="44.12793" lon="5.29072">
        <ele>974.4</ele>
        <time>2021-09-12T11:16:47Z</time>
      </trkpt>
      <trkpt lat="44.12791" lon="5.29058">
        <ele>973.2</ele>
        <time>2021-09-12T11:16:50Z</time>
      </trkpt>
      <trkpt lat="44.12795" lon="5.29024">
        <ele>972.2</ele>
        <time>2021-09-12T11:16:57Z</time>
      </trkpt>
      <trkpt lat="44.12797" lon="5.28998">
        <ele>970.8</ele>
        <time>2021-09-12T11:17:01Z</time>
      </trkpt>
      <trkpt lat="44.1281" lon="5.28943">
        <ele>969.6</ele>
        <time>2021-09-12T11:17:12Z</time>
      </trkpt>
      <trkpt lat="44.12815" lon="5.28881">
        <ele>968.6</ele>
        <time>2021-09-12T11:17:24Z</time>
      </trkpt>
      <trkpt lat="44.1281" lon="5.28864">
        <ele>967.4</ele>
        <time>2021-09-12T11:17:29Z</time>
      </trkpt>
      <trkpt lat="44.12802" lon="5.28836">
        <ele>966.2</ele>
        <time>2021-09-12T11:17:39Z</time>
      </trkpt>
      <trkpt lat="44.12798" lon="5.2882">
        <ele>965.8</ele>
        <time>2021-09-12T11:18:38Z</time>
      </trkpt>
      <trkpt lat="44.12797" lon="5.28814">
        <ele>965.8</ele>
        <time>2021-09-12T11:18:40Z</time>
      </trkpt>
      <trkpt lat="44.12791" lon="5.28794">
        <ele>965.2</ele>
        <time>2021-09-12T11:18:45Z</time>
      </trkpt>
      <trkpt lat="44.12785" lon="5.28772">
        <ele>964</ele>
        <time>2021-09-12T11:18:50Z</time>
      </trkpt>
      <trkpt lat="44.12777" lon="5.28743">
        <ele>962.6</ele>
        <time>2021-09-12T11:18:57Z</time>
      </trkpt>
      <trkpt lat="44.12777" lon="5.28715">
        <ele>961.6</ele>
        <time>2021-09-12T11:19:02Z</time>
      </trkpt>
      <trkpt lat="44.12779" lon="5.28693">
        <ele>961.2</ele>
        <time>2021-09-12T11:19:06Z</time>
      </trkpt>
      <trkpt lat="44.12788" lon="5.28658">
        <ele>961.8</ele>
        <time>2021-09-12T11:19:16Z</time>
      </trkpt>
      <trkpt lat="44.12787" lon="5.28655">
        <ele>961.8</ele>
        <time>2021-09-12T11:19:18Z</time>
      </trkpt>
      <trkpt lat="44.12785" lon="5.28652">
        <ele>961.6</ele>
        <time>2021-09-12T11:19:20Z</time>
      </trkpt>
      <trkpt lat="44.12778" lon="5.28647">
        <ele>961.6</ele>
        <time>2021-09-12T11:19:25Z</time>
      </trkpt>
      <trkpt lat="44.12776" lon="5.28626">
        <ele>960.4</ele>
        <time>2021-09-12T11:19:31Z</time>
      </trkpt>
      <trkpt lat="44.12776" lon="5.28613">
        <ele>959.6</ele>
        <time>2021-09-12T11:19:36Z</time>
      </trkpt>
      <trkpt lat="44.12771" lon="5.28605">
        <ele>959.2</ele>
        <time>2021-09-12T11:19:39Z</time>
      </trkpt>
      <trkpt lat="44.12767" lon="5.28597">
        <ele>958.2</ele>
        <time>2021-09-12T11:19:43Z</time>
      </trkpt>
      <trkpt lat="44.12764" lon="5.28597">
        <ele>958</ele>
        <time>2021-09-12T11:20:30Z</time>
      </trkpt>
      <trkpt lat="44.12764" lon="5.28598">
        <ele>958.2</ele>
        <time>2021-09-12T11:21:45Z</time>
      </trkpt>
      <trkpt lat="44.12763" lon="5.28597">
        <ele>958.2</ele>
        <time>2021-09-12T11:21:58Z</time>
      </trkpt>
      <trkpt lat="44.12759" lon="5.28594">
        <ele>957.8</ele>
        <time>2021-09-12T11:22:01Z</time>
      </trkpt>
      <trkpt lat="44.12757" lon="5.28591">
        <ele>957</ele>
        <time>2021-09-12T11:22:02Z</time>
      </trkpt>
      <trkpt lat="44.12751" lon="5.28583">
        <ele>956.2</ele>
        <time>2021-09-12T11:22:05Z</time>
      </trkpt>
      <trkpt lat="44.12746" lon="5.2856">
        <ele>956</ele>
        <time>2021-09-12T11:22:10Z</time>
      </trkpt>
      <trkpt lat="44.12742" lon="5.28545">
        <ele>954.6</ele>
        <time>2021-09-12T11:22:13Z</time>
      </trkpt>
      <trkpt lat="44.12734" lon="5.28522">
        <ele>953.8</ele>
        <time>2021-09-12T11:22:17Z</time>
      </trkpt>
      <trkpt lat="44.12732" lon="5.28516">
        <ele>953.4</ele>
        <time>2021-09-12T11:22:18Z</time>
      </trkpt>
      <trkpt lat="44.12725" lon="5.28508">
        <ele>952.2</ele>
        <time>2021-09-12T11:22:21Z</time>
      </trkpt>
      <trkpt lat="44.12695" lon="5.28517">
        <ele>951</ele>
        <time>2021-09-12T11:22:31Z</time>
      </trkpt>
      <trkpt lat="44.12688" lon="5.28513">
        <ele>950.6</ele>
        <time>2021-09-12T11:22:33Z</time>
      </trkpt>
      <trkpt lat="44.12681" lon="5.28501">
        <ele>950.2</ele>
        <time>2021-09-12T11:22:36Z</time>
      </trkpt>
      <trkpt lat="44.12681" lon="5.28491">
        <ele>949.8</ele>
        <time>2021-09-12T11:22:38Z</time>
      </trkpt>
      <trkpt lat="44.12678" lon="5.28472">
        <ele>948.6</ele>
        <time>2021-09-12T11:22:43Z</time>
      </trkpt>
      <trkpt lat="44.12664" lon="5.28451">
        <ele>947.4</ele>
        <time>2021-09-12T11:22:49Z</time>
      </trkpt>
      <trkpt lat="44.1262" lon="5.28441">
        <ele>947.4</ele>
        <time>2021-09-12T11:23:04Z</time>
      </trkpt>
      <trkpt lat="44.12572" lon="5.28448">
        <ele>946.6</ele>
        <time>2021-09-12T11:23:18Z</time>
      </trkpt>
      <trkpt lat="44.12569" lon="5.28442">
        <ele>946.4</ele>
        <time>2021-09-12T11:23:20Z</time>
      </trkpt>
      <trkpt lat="44.12566" lon="5.28435">
        <ele>946.2</ele>
        <time>2021-09-12T11:23:23Z</time>
      </trkpt>
      <trkpt lat="44.1256" lon="5.28417">
        <ele>946.6</ele>
        <time>2021-09-12T11:23:31Z</time>
      </trkpt>
      <trkpt lat="44.12556" lon="5.28414">
        <ele>947.6</ele>
        <time>2021-09-12T11:23:34Z</time>
      </trkpt>
      <trkpt lat="44.12504" lon="5.28402">
        <ele>946.6</ele>
        <time>2021-09-12T11:23:56Z</time>
      </trkpt>
      <trkpt lat="44.12501" lon="5.28403">
        <ele>946.4</ele>
        <time>2021-09-12T11:23:57Z</time>
      </trkpt>
      <trkpt lat="44.12498" lon="5.28402">
        <ele>946.2</ele>
        <time>2021-09-12T11:23:58Z</time>
      </trkpt>
      <trkpt lat="44.12461" lon="5.28376">
        <ele>947</ele>
        <time>2021-09-12T11:24:22Z</time>
      </trkpt>
      <trkpt lat="44.12451" lon="5.28368">
        <ele>947.8</ele>
        <time>2021-09-12T11:24:29Z</time>
      </trkpt>
      <trkpt lat="44.12446" lon="5.28366">
        <ele>948.2</ele>
        <time>2021-09-12T11:24:33Z</time>
      </trkpt>
      <trkpt lat="44.12443" lon="5.28364">
        <ele>948.8</ele>
        <time>2021-09-12T11:24:40Z</time>
      </trkpt>
      <trkpt lat="44.1244" lon="5.28363">
        <ele>948.8</ele>
        <time>2021-09-12T11:24:42Z</time>
      </trkpt>
      <trkpt lat="44.1243" lon="5.28352">
        <ele>950</ele>
        <time>2021-09-12T11:24:55Z</time>
      </trkpt>
      <trkpt lat="44.12427" lon="5.28349">
        <ele>951</ele>
        <time>2021-09-12T11:25:01Z</time>
      </trkpt>
      <trkpt lat="44.12426" lon="5.28347">
        <ele>952</ele>
        <time>2021-09-12T11:25:04Z</time>
      </trkpt>
      <trkpt lat="44.12428" lon="5.28342">
        <ele>953.2</ele>
        <time>2021-09-12T11:25:10Z</time>
      </trkpt>
      <trkpt lat="44.12428" lon="5.28336">
        <ele>954.2</ele>
        <time>2021-09-12T11:25:16Z</time>
      </trkpt>
      <trkpt lat="44.12428" lon="5.28332">
        <ele>954.8</ele>
        <time>2021-09-12T11:25:19Z</time>
      </trkpt>
      <trkpt lat="44.12429" lon="5.28328">
        <ele>955.4</ele>
        <time>2021-09-12T11:25:21Z</time>
      </trkpt>
      <trkpt lat="44.1243" lon="5.28321">
        <ele>956.4</ele>
        <time>2021-09-12T11:25:25Z</time>
      </trkpt>
      <trkpt lat="44.1243" lon="5.28315">
        <ele>957</ele>
        <time>2021-09-12T11:25:28Z</time>
      </trkpt>
      <trkpt lat="44.1243" lon="5.28306">
        <ele>957.4</ele>
        <time>2021-09-12T11:25:33Z</time>
      </trkpt>
      <trkpt lat="44.12427" lon="5.28299">
        <ele>957.8</ele>
        <time>2021-09-12T11:25:54Z</time>
      </trkpt>
      <trkpt lat="44.12428" lon="5.28295">
        <ele>957.6</ele>
        <time>2021-09-12T11:25:58Z</time>
      </trkpt>
      <trkpt lat="44.12431" lon="5.28291">
        <ele>957.2</ele>
        <time>2021-09-12T11:27:05Z</time>
      </trkpt>
      <trkpt lat="44.12432" lon="5.28282">
        <ele>957.2</ele>
        <time>2021-09-12T11:27:09Z</time>
      </trkpt>
      <trkpt lat="44.12427" lon="5.28248">
        <ele>956.2</ele>
        <time>2021-09-12T11:27:21Z</time>
      </trkpt>
      <trkpt lat="44.12425" lon="5.2823">
        <ele>955</ele>
        <time>2021-09-12T11:27:25Z</time>
      </trkpt>
      <trkpt lat="44.12427" lon="5.28214">
        <ele>953.6</ele>
        <time>2021-09-12T11:27:28Z</time>
      </trkpt>
      <trkpt lat="44.1243" lon="5.28203">
        <ele>952.6</ele>
        <time>2021-09-12T11:27:31Z</time>
      </trkpt>
      <trkpt lat="44.12431" lon="5.28184">
        <ele>951.4</ele>
        <time>2021-09-12T11:27:35Z</time>
      </trkpt>
      <trkpt lat="44.12433" lon="5.28174">
        <ele>950</ele>
        <time>2021-09-12T11:27:37Z</time>
      </trkpt>
      <trkpt lat="44.12438" lon="5.28159">
        <ele>948.4</ele>
        <time>2021-09-12T11:27:40Z</time>
      </trkpt>
      <trkpt lat="44.1244" lon="5.28152">
        <ele>947.2</ele>
        <time>2021-09-12T11:27:42Z</time>
      </trkpt>
      <trkpt lat="44.12441" lon="5.28144">
        <ele>946.2</ele>
        <time>2021-09-12T11:27:44Z</time>
      </trkpt>
      <trkpt lat="44.12442" lon="5.28139">
        <ele>945.8</ele>
        <time>2021-09-12T11:27:45Z</time>
      </trkpt>
      <trkpt lat="44.12449" lon="5.28127">
        <ele>944.8</ele>
        <time>2021-09-12T11:27:48Z</time>
      </trkpt>
      <trkpt lat="44.12459" lon="5.28107">
        <ele>944</ele>
        <time>2021-09-12T11:27:52Z</time>
      </trkpt>
      <trkpt lat="44.12462" lon="5.28103">
        <ele>943.8</ele>
        <time>2021-09-12T11:27:53Z</time>
      </trkpt>
      <trkpt lat="44.12475" lon="5.2808">
        <ele>942.6</ele>
        <time>2021-09-12T11:27:58Z</time>
      </trkpt>
      <trkpt lat="44.12489" lon="5.28059">
        <ele>941.4</ele>
        <time>2021-09-12T11:28:04Z</time>
      </trkpt>
      <trkpt lat="44.12502" lon="5.28043">
        <ele>940.4</ele>
        <time>2021-09-12T11:28:11Z</time>
      </trkpt>
      <trkpt lat="44.12515" lon="5.28036">
        <ele>940</ele>
        <time>2021-09-12T11:28:18Z</time>
      </trkpt>
      <trkpt lat="44.1252" lon="5.28031">
        <ele>939.8</ele>
        <time>2021-09-12T11:28:21Z</time>
      </trkpt>
      <trkpt lat="44.12523" lon="5.28024">
        <ele>939</ele>
        <time>2021-09-12T11:28:24Z</time>
      </trkpt>
      <trkpt lat="44.12523" lon="5.28022">
        <ele>938.8</ele>
        <time>2021-09-12T11:28:25Z</time>
      </trkpt>
      <trkpt lat="44.12523" lon="5.28013">
        <ele>937.8</ele>
        <time>2021-09-12T11:28:29Z</time>
      </trkpt>
      <trkpt lat="44.12524" lon="5.2801">
        <ele>937.4</ele>
        <time>2021-09-12T11:28:30Z</time>
      </trkpt>
      <trkpt lat="44.12524" lon="5.28007">
        <ele>936.6</ele>
        <time>2021-09-12T11:28:32Z</time>
      </trkpt>
      <trkpt lat="44.12526" lon="5.28002">
        <ele>935.8</ele>
        <time>2021-09-12T11:28:54Z</time>
      </trkpt>
      <trkpt lat="44.12518" lon="5.27999">
        <ele>935.8</ele>
        <time>2021-09-12T11:28:58Z</time>
      </trkpt>
      <trkpt lat="44.1251" lon="5.27991">
        <ele>935.4</ele>
        <time>2021-09-12T11:29:01Z</time>
      </trkpt>
      <trkpt lat="44.12504" lon="5.27979">
        <ele>934.4</ele>
        <time>2021-09-12T11:29:04Z</time>
      </trkpt>
      <trkpt lat="44.12505" lon="5.27974">
        <ele>934.2</ele>
        <time>2021-09-12T11:29:05Z</time>
      </trkpt>
      <trkpt lat="44.12507" lon="5.27964">
        <ele>933</ele>
        <time>2021-09-12T11:29:07Z</time>
      </trkpt>
      <trkpt lat="44.1251" lon="5.27956">
        <ele>931.4</ele>
        <time>2021-09-12T11:29:09Z</time>
      </trkpt>
      <trkpt lat="44.12511" lon="5.27953">
        <ele>930.8</ele>
        <time>2021-09-12T11:29:10Z</time>
      </trkpt>
      <trkpt lat="44.1251" lon="5.2795">
        <ele>930.2</ele>
        <time>2021-09-12T11:29:11Z</time>
      </trkpt>
      <trkpt lat="44.12507" lon="5.27939">
        <ele>929</ele>
        <time>2021-09-12T11:29:14Z</time>
      </trkpt>
      <trkpt lat="44.12508" lon="5.27932">
        <ele>927.8</ele>
        <time>2021-09-12T11:29:16Z</time>
      </trkpt>
      <trkpt lat="44.12507" lon="5.27923">
        <ele>926.6</ele>
        <time>2021-09-12T11:29:18Z</time>
      </trkpt>
      <trkpt lat="44.12505" lon="5.27918">
        <ele>926</ele>
        <time>2021-09-12T11:29:19Z</time>
      </trkpt>
      <trkpt lat="44.12504" lon="5.27915">
        <ele>925.4</ele>
        <time>2021-09-12T11:29:20Z</time>
      </trkpt>
      <trkpt lat="44.12498" lon="5.27898">
        <ele>923.8</ele>
        <time>2021-09-12T11:29:23Z</time>
      </trkpt>
      <trkpt lat="44.12498" lon="5.27887">
        <ele>922.6</ele>
        <time>2021-09-12T11:29:25Z</time>
      </trkpt>
      <trkpt lat="44.12499" lon="5.27875">
        <ele>921.6</ele>
        <time>2021-09-12T11:29:28Z</time>
      </trkpt>
      <trkpt lat="44.12493" lon="5.27864">
        <ele>920</ele>
        <time>2021-09-12T11:29:32Z</time>
      </trkpt>
      <trkpt lat="44.12486" lon="5.27853">
        <ele>919</ele>
        <time>2021-09-12T11:29:35Z</time>
      </trkpt>
      <trkpt lat="44.12482" lon="5.27843">
        <ele>917.4</ele>
        <time>2021-09-12T11:29:37Z</time>
      </trkpt>
      <trkpt lat="44.12478" lon="5.27834">
        <ele>916.2</ele>
        <time>2021-09-12T11:29:39Z</time>
      </trkpt>
      <trkpt lat="44.12468" lon="5.27819">
        <ele>915</ele>
        <time>2021-09-12T11:29:44Z</time>
      </trkpt>
      <trkpt lat="44.12455" lon="5.27801">
        <ele>914.2</ele>
        <time>2021-09-12T11:29:52Z</time>
      </trkpt>
      <trkpt lat="44.12451" lon="5.27798">
        <ele>913.8</ele>
        <time>2021-09-12T11:29:54Z</time>
      </trkpt>
      <trkpt lat="44.12442" lon="5.27804">
        <ele>913</ele>
        <time>2021-09-12T11:30:00Z</time>
      </trkpt>
      <trkpt lat="44.1244" lon="5.27809">
        <ele>913</ele>
        <time>2021-09-12T11:30:03Z</time>
      </trkpt>
      <trkpt lat="44.1244" lon="5.27814">
        <ele>913</ele>
        <time>2021-09-12T11:30:06Z</time>
      </trkpt>
      <trkpt lat="44.12439" lon="5.27818">
        <ele>913</ele>
        <time>2021-09-12T11:30:08Z</time>
      </trkpt>
      <trkpt lat="44.12419" lon="5.27827">
        <ele>912.8</ele>
        <time>2021-09-12T11:30:17Z</time>
      </trkpt>
      <trkpt lat="44.12417" lon="5.27828">
        <ele>912.6</ele>
        <time>2021-09-12T11:30:18Z</time>
      </trkpt>
      <trkpt lat="44.12415" lon="5.27833">
        <ele>912</ele>
        <time>2021-09-12T11:30:20Z</time>
      </trkpt>
      <trkpt lat="44.12415" lon="5.27842">
        <ele>911.8</ele>
        <time>2021-09-12T11:30:23Z</time>
      </trkpt>
      <trkpt lat="44.1241" lon="5.27847">
        <ele>912.2</ele>
        <time>2021-09-12T11:30:26Z</time>
      </trkpt>
      <trkpt lat="44.12396" lon="5.27846">
        <ele>911.8</ele>
        <time>2021-09-12T11:30:30Z</time>
      </trkpt>
      <trkpt lat="44.12388" lon="5.27844">
        <ele>910.8</ele>
        <time>2021-09-12T11:30:32Z</time>
      </trkpt>
      <trkpt lat="44.12382" lon="5.27845">
        <ele>909.6</ele>
        <time>2021-09-12T11:30:34Z</time>
      </trkpt>
      <trkpt lat="44.12373" lon="5.2785">
        <ele>908.4</ele>
        <time>2021-09-12T11:30:37Z</time>
      </trkpt>
      <trkpt lat="44.12368" lon="5.27859">
        <ele>907.4</ele>
        <time>2021-09-12T11:30:40Z</time>
      </trkpt>
      <trkpt lat="44.12366" lon="5.27862">
        <ele>906.8</ele>
        <time>2021-09-12T11:30:42Z</time>
      </trkpt>
      <trkpt lat="44.12357" lon="5.27873">
        <ele>906.2</ele>
        <time>2021-09-12T11:30:47Z</time>
      </trkpt>
      <trkpt lat="44.12349" lon="5.27881">
        <ele>905</ele>
        <time>2021-09-12T11:30:52Z</time>
      </trkpt>
      <trkpt lat="44.12345" lon="5.27881">
        <ele>904.6</ele>
        <time>2021-09-12T11:31:35Z</time>
      </trkpt>
      <trkpt lat="44.12343" lon="5.27882">
        <ele>904.6</ele>
        <time>2021-09-12T11:31:37Z</time>
      </trkpt>
      <trkpt lat="44.12342" lon="5.27894">
        <ele>904.6</ele>
        <time>2021-09-12T11:31:43Z</time>
      </trkpt>
      <trkpt lat="44.12341" lon="5.27898">
        <ele>904.6</ele>
        <time>2021-09-12T11:31:45Z</time>
      </trkpt>
      <trkpt lat="44.12321" lon="5.27905">
        <ele>903.8</ele>
        <time>2021-09-12T11:31:53Z</time>
      </trkpt>
      <trkpt lat="44.12316" lon="5.27909">
        <ele>902.8</ele>
        <time>2021-09-12T11:31:55Z</time>
      </trkpt>
      <trkpt lat="44.1231" lon="5.2791">
        <ele>901.6</ele>
        <time>2021-09-12T11:31:57Z</time>
      </trkpt>
      <trkpt lat="44.12295" lon="5.27898">
        <ele>900.4</ele>
        <time>2021-09-12T11:32:01Z</time>
      </trkpt>
      <trkpt lat="44.12291" lon="5.2789">
        <ele>899.2</ele>
        <time>2021-09-12T11:32:03Z</time>
      </trkpt>
      <trkpt lat="44.12287" lon="5.27886">
        <ele>897.4</ele>
        <time>2021-09-12T11:32:05Z</time>
      </trkpt>
      <trkpt lat="44.12282" lon="5.27887">
        <ele>895.6</ele>
        <time>2021-09-12T11:32:07Z</time>
      </trkpt>
      <trkpt lat="44.12269" lon="5.27884">
        <ele>894.4</ele>
        <time>2021-09-12T11:32:11Z</time>
      </trkpt>
      <trkpt lat="44.12261" lon="5.27879">
        <ele>892.8</ele>
        <time>2021-09-12T11:32:13Z</time>
      </trkpt>
      <trkpt lat="44.12253" lon="5.27874">
        <ele>891</ele>
        <time>2021-09-12T11:32:15Z</time>
      </trkpt>
      <trkpt lat="44.12246" lon="5.27869">
        <ele>889.2</ele>
        <time>2021-09-12T11:32:17Z</time>
      </trkpt>
      <trkpt lat="44.12238" lon="5.27865">
        <ele>887.6</ele>
        <time>2021-09-12T11:32:19Z</time>
      </trkpt>
      <trkpt lat="44.12231" lon="5.27865">
        <ele>885.6</ele>
        <time>2021-09-12T11:32:21Z</time>
      </trkpt>
      <trkpt lat="44.12223" lon="5.27866">
        <ele>884.8</ele>
        <time>2021-09-12T11:32:24Z</time>
      </trkpt>
      <trkpt lat="44.12222" lon="5.27865">
        <ele>884.6</ele>
        <time>2021-09-12T11:32:25Z</time>
      </trkpt>
      <trkpt lat="44.12213" lon="5.27859">
        <ele>884.2</ele>
        <time>2021-09-12T11:32:49Z</time>
      </trkpt>
      <trkpt lat="44.12191" lon="5.27868">
        <ele>883.6</ele>
        <time>2021-09-12T11:32:58Z</time>
      </trkpt>
      <trkpt lat="44.12181" lon="5.27862">
        <ele>882.2</ele>
        <time>2021-09-12T11:33:03Z</time>
      </trkpt>
      <trkpt lat="44.12178" lon="5.27855">
        <ele>880.8</ele>
        <time>2021-09-12T11:33:06Z</time>
      </trkpt>
      <trkpt lat="44.12175" lon="5.27847">
        <ele>880</ele>
        <time>2021-09-12T11:33:09Z</time>
      </trkpt>
      <trkpt lat="44.12174" lon="5.27844">
        <ele>879.4</ele>
        <time>2021-09-12T11:33:10Z</time>
      </trkpt>
      <trkpt lat="44.12174" lon="5.27835">
        <ele>877.8</ele>
        <time>2021-09-12T11:33:13Z</time>
      </trkpt>
      <trkpt lat="44.12173" lon="5.27832">
        <ele>877.2</ele>
        <time>2021-09-12T11:33:14Z</time>
      </trkpt>
      <trkpt lat="44.12171" lon="5.27829">
        <ele>876.6</ele>
        <time>2021-09-12T11:33:15Z</time>
      </trkpt>
      <trkpt lat="44.12167" lon="5.27816">
        <ele>874.8</ele>
        <time>2021-09-12T11:33:18Z</time>
      </trkpt>
      <trkpt lat="44.12167" lon="5.27808">
        <ele>873</ele>
        <time>2021-09-12T11:33:20Z</time>
      </trkpt>
      <trkpt lat="44.12165" lon="5.27805">
        <ele>872.6</ele>
        <time>2021-09-12T11:33:21Z</time>
      </trkpt>
      <trkpt lat="44.12161" lon="5.278">
        <ele>871.8</ele>
        <time>2021-09-12T11:33:23Z</time>
      </trkpt>
      <trkpt lat="44.12151" lon="5.27796">
        <ele>870.4</ele>
        <time>2021-09-12T11:33:26Z</time>
      </trkpt>
      <trkpt lat="44.12142" lon="5.27794">
        <ele>869.2</ele>
        <time>2021-09-12T11:33:29Z</time>
      </trkpt>
      <trkpt lat="44.12133" lon="5.27782">
        <ele>868</ele>
        <time>2021-09-12T11:33:33Z</time>
      </trkpt>
      <trkpt lat="44.12121" lon="5.2778">
        <ele>866.6</ele>
        <time>2021-09-12T11:33:37Z</time>
      </trkpt>
      <trkpt lat="44.12117" lon="5.27777">
        <ele>865.4</ele>
        <time>2021-09-12T11:33:40Z</time>
      </trkpt>
      <trkpt lat="44.12115" lon="5.27775">
        <ele>864.2</ele>
        <time>2021-09-12T11:33:43Z</time>
      </trkpt>
      <trkpt lat="44.12109" lon="5.27768">
        <ele>863.4</ele>
        <time>2021-09-12T11:33:59Z</time>
      </trkpt>
      <trkpt lat="44.12103" lon="5.27764">
        <ele>863</ele>
        <time>2021-09-12T11:34:02Z</time>
      </trkpt>
      <trkpt lat="44.12083" lon="5.27753">
        <ele>861.6</ele>
        <time>2021-09-12T11:34:07Z</time>
      </trkpt>
      <trkpt lat="44.12074" lon="5.27746">
        <ele>860.6</ele>
        <time>2021-09-12T11:34:09Z</time>
      </trkpt>
      <trkpt lat="44.1207" lon="5.27743">
        <ele>860</ele>
        <time>2021-09-12T11:34:10Z</time>
      </trkpt>
      <trkpt lat="44.12062" lon="5.27733">
        <ele>858.8</ele>
        <time>2021-09-12T11:34:12Z</time>
      </trkpt>
      <trkpt lat="44.12056" lon="5.27725">
        <ele>856.8</ele>
        <time>2021-09-12T11:34:14Z</time>
      </trkpt>
      <trkpt lat="44.12054" lon="5.27721">
        <ele>855.8</ele>
        <time>2021-09-12T11:34:15Z</time>
      </trkpt>
      <trkpt lat="44.12048" lon="5.27717">
        <ele>854</ele>
        <time>2021-09-12T11:34:17Z</time>
      </trkpt>
      <trkpt lat="44.12044" lon="5.27715">
        <ele>853.4</ele>
        <time>2021-09-12T11:34:18Z</time>
      </trkpt>
      <trkpt lat="44.12039" lon="5.27713">
        <ele>852.6</ele>
        <time>2021-09-12T11:34:19Z</time>
      </trkpt>
      <trkpt lat="44.12034" lon="5.2771">
        <ele>852</ele>
        <time>2021-09-12T11:34:20Z</time>
      </trkpt>
      <trkpt lat="44.12029" lon="5.27706">
        <ele>851.2</ele>
        <time>2021-09-12T11:34:21Z</time>
      </trkpt>
      <trkpt lat="44.12024" lon="5.27702">
        <ele>850.6</ele>
        <time>2021-09-12T11:34:22Z</time>
      </trkpt>
      <trkpt lat="44.12019" lon="5.27697">
        <ele>850</ele>
        <time>2021-09-12T11:34:23Z</time>
      </trkpt>
      <trkpt lat="44.1201" lon="5.27689">
        <ele>848.4</ele>
        <time>2021-09-12T11:34:25Z</time>
      </trkpt>
      <trkpt lat="44.12" lon="5.27684">
        <ele>846.6</ele>
        <time>2021-09-12T11:34:27Z</time>
      </trkpt>
      <trkpt lat="44.11996" lon="5.2768">
        <ele>845.8</ele>
        <time>2021-09-12T11:34:28Z</time>
      </trkpt>
      <trkpt lat="44.11991" lon="5.27677">
        <ele>845.2</ele>
        <time>2021-09-12T11:34:29Z</time>
      </trkpt>
      <trkpt lat="44.11987" lon="5.27674">
        <ele>845</ele>
        <time>2021-09-12T11:34:30Z</time>
      </trkpt>
      <trkpt lat="44.11978" lon="5.27674">
        <ele>844.4</ele>
        <time>2021-09-12T11:34:32Z</time>
      </trkpt>
      <trkpt lat="44.1197" lon="5.27672">
        <ele>843.6</ele>
        <time>2021-09-12T11:34:34Z</time>
      </trkpt>
      <trkpt lat="44.11961" lon="5.2767">
        <ele>842.2</ele>
        <time>2021-09-12T11:34:36Z</time>
      </trkpt>
      <trkpt lat="44.11952" lon="5.27669">
        <ele>840.8</ele>
        <time>2021-09-12T11:34:39Z</time>
      </trkpt>
      <trkpt lat="44.11945" lon="5.27668">
        <ele>839.6</ele>
        <time>2021-09-12T11:34:41Z</time>
      </trkpt>
      <trkpt lat="44.11937" lon="5.27667">
        <ele>838.2</ele>
        <time>2021-09-12T11:34:43Z</time>
      </trkpt>
      <trkpt lat="44.1193" lon="5.27665">
        <ele>837</ele>
        <time>2021-09-12T11:34:45Z</time>
      </trkpt>
      <trkpt lat="44.11921" lon="5.27661">
        <ele>836.4</ele>
        <time>2021-09-12T11:34:47Z</time>
      </trkpt>
      <trkpt lat="44.11917" lon="5.27658">
        <ele>836</ele>
        <time>2021-09-12T11:34:48Z</time>
      </trkpt>
      <trkpt lat="44.11914" lon="5.27655">
        <ele>835.4</ele>
        <time>2021-09-12T11:34:49Z</time>
      </trkpt>
      <trkpt lat="44.11912" lon="5.27653">
        <ele>834.4</ele>
        <time>2021-09-12T11:34:50Z</time>
      </trkpt>
      <trkpt lat="44.11908" lon="5.27647">
        <ele>833.2</ele>
        <time>2021-09-12T11:34:52Z</time>
      </trkpt>
      <trkpt lat="44.11897" lon="5.27635">
        <ele>832</ele>
        <time>2021-09-12T11:34:56Z</time>
      </trkpt>
      <trkpt lat="44.1189" lon="5.27625">
        <ele>830.6</ele>
        <time>2021-09-12T11:34:58Z</time>
      </trkpt>
      <trkpt lat="44.11885" lon="5.27619">
        <ele>829.4</ele>
        <time>2021-09-12T11:35:00Z</time>
      </trkpt>
      <trkpt lat="44.11876" lon="5.27613">
        <ele>828.4</ele>
        <time>2021-09-12T11:35:03Z</time>
      </trkpt>
      <trkpt lat="44.11866" lon="5.27589">
        <ele>827</ele>
        <time>2021-09-12T11:35:07Z</time>
      </trkpt>
      <trkpt lat="44.11862" lon="5.27573">
        <ele>825.2</ele>
        <time>2021-09-12T11:35:09Z</time>
      </trkpt>
      <trkpt lat="44.1186" lon="5.27566">
        <ele>824.4</ele>
        <time>2021-09-12T11:35:10Z</time>
      </trkpt>
      <trkpt lat="44.11857" lon="5.27558">
        <ele>823.6</ele>
        <time>2021-09-12T11:35:11Z</time>
      </trkpt>
      <trkpt lat="44.11855" lon="5.2755">
        <ele>823</ele>
        <time>2021-09-12T11:35:12Z</time>
      </trkpt>
      <trkpt lat="44.11852" lon="5.27539">
        <ele>822.2</ele>
        <time>2021-09-12T11:35:14Z</time>
      </trkpt>
      <trkpt lat="44.1185" lon="5.27532">
        <ele>821.2</ele>
        <time>2021-09-12T11:35:16Z</time>
      </trkpt>
      <trkpt lat="44.11848" lon="5.27524">
        <ele>820</ele>
        <time>2021-09-12T11:35:18Z</time>
      </trkpt>
      <trkpt lat="44.11844" lon="5.27511">
        <ele>819</ele>
        <time>2021-09-12T11:35:21Z</time>
      </trkpt>
      <trkpt lat="44.11838" lon="5.275">
        <ele>818</ele>
        <time>2021-09-12T11:35:40Z</time>
      </trkpt>
      <trkpt lat="44.11838" lon="5.27484">
        <ele>817.8</ele>
        <time>2021-09-12T11:36:07Z</time>
      </trkpt>
      <trkpt lat="44.11828" lon="5.27458">
        <ele>816.4</ele>
        <time>2021-09-12T11:36:14Z</time>
      </trkpt>
      <trkpt lat="44.11823" lon="5.27452">
        <ele>815.4</ele>
        <time>2021-09-12T11:36:16Z</time>
      </trkpt>
      <trkpt lat="44.11816" lon="5.27442">
        <ele>814.2</ele>
        <time>2021-09-12T11:36:19Z</time>
      </trkpt>
      <trkpt lat="44.11812" lon="5.27435">
        <ele>813.2</ele>
        <time>2021-09-12T11:36:21Z</time>
      </trkpt>
      <trkpt lat="44.11808" lon="5.27426">
        <ele>812.2</ele>
        <time>2021-09-12T11:36:23Z</time>
      </trkpt>
      <trkpt lat="44.11802" lon="5.27415">
        <ele>811</ele>
        <time>2021-09-12T11:36:25Z</time>
      </trkpt>
      <trkpt lat="44.11795" lon="5.27403">
        <ele>809.4</ele>
        <time>2021-09-12T11:36:27Z</time>
      </trkpt>
      <trkpt lat="44.11793" lon="5.27398">
        <ele>808.2</ele>
        <time>2021-09-12T11:36:28Z</time>
      </trkpt>
      <trkpt lat="44.11788" lon="5.27386">
        <ele>806.6</ele>
        <time>2021-09-12T11:36:30Z</time>
      </trkpt>
      <trkpt lat="44.11784" lon="5.27373">
        <ele>805.6</ele>
        <time>2021-09-12T11:36:32Z</time>
      </trkpt>
      <trkpt lat="44.11779" lon="5.27364">
        <ele>804.4</ele>
        <time>2021-09-12T11:36:34Z</time>
      </trkpt>
      <trkpt lat="44.11774" lon="5.27356">
        <ele>803.4</ele>
        <time>2021-09-12T11:36:36Z</time>
      </trkpt>
      <trkpt lat="44.11771" lon="5.27347">
        <ele>801.8</ele>
        <time>2021-09-12T11:36:38Z</time>
      </trkpt>
      <trkpt lat="44.11768" lon="5.27338">
        <ele>800.8</ele>
        <time>2021-09-12T11:36:40Z</time>
      </trkpt>
      <trkpt lat="44.11763" lon="5.2733">
        <ele>799.6</ele>
        <time>2021-09-12T11:36:42Z</time>
      </trkpt>
      <trkpt lat="44.11759" lon="5.27323">
        <ele>798.2</ele>
        <time>2021-09-12T11:36:44Z</time>
      </trkpt>
      <trkpt lat="44.11758" lon="5.2732">
        <ele>797.4</ele>
        <time>2021-09-12T11:36:45Z</time>
      </trkpt>
      <trkpt lat="44.11755" lon="5.27318">
        <ele>796.6</ele>
        <time>2021-09-12T11:36:46Z</time>
      </trkpt>
      <trkpt lat="44.1175" lon="5.27311">
        <ele>795.4</ele>
        <time>2021-09-12T11:36:48Z</time>
      </trkpt>
      <trkpt lat="44.11745" lon="5.27307">
        <ele>794</ele>
        <time>2021-09-12T11:36:50Z</time>
      </trkpt>
      <trkpt lat="44.11744" lon="5.27304">
        <ele>793.6</ele>
        <time>2021-09-12T11:36:51Z</time>
      </trkpt>
      <trkpt lat="44.11741" lon="5.273">
        <ele>792.8</ele>
        <time>2021-09-12T11:36:53Z</time>
      </trkpt>
      <trkpt lat="44.11736" lon="5.27297">
        <ele>792.2</ele>
        <time>2021-09-12T11:36:55Z</time>
      </trkpt>
      <trkpt lat="44.11733" lon="5.27293">
        <ele>791.6</ele>
        <time>2021-09-12T11:36:57Z</time>
      </trkpt>
      <trkpt lat="44.11732" lon="5.2729">
        <ele>791.4</ele>
        <time>2021-09-12T11:36:58Z</time>
      </trkpt>
      <trkpt lat="44.11732" lon="5.27282">
        <ele>791</ele>
        <time>2021-09-12T11:37:00Z</time>
      </trkpt>
      <trkpt lat="44.11727" lon="5.27258">
        <ele>790.6</ele>
        <time>2021-09-12T11:37:05Z</time>
      </trkpt>
      <trkpt lat="44.11719" lon="5.27231">
        <ele>790.4</ele>
        <time>2021-09-12T11:37:12Z</time>
      </trkpt>
      <trkpt lat="44.11708" lon="5.27216">
        <ele>789.2</ele>
        <time>2021-09-12T11:37:17Z</time>
      </trkpt>
      <trkpt lat="44.11705" lon="5.27208">
        <ele>788</ele>
        <time>2021-09-12T11:37:19Z</time>
      </trkpt>
      <trkpt lat="44.11699" lon="5.27187">
        <ele>787</ele>
        <time>2021-09-12T11:37:23Z</time>
      </trkpt>
      <trkpt lat="44.11696" lon="5.27164">
        <ele>786</ele>
        <time>2021-09-12T11:37:28Z</time>
      </trkpt>
      <trkpt lat="44.11695" lon="5.27146">
        <ele>784.8</ele>
        <time>2021-09-12T11:37:33Z</time>
      </trkpt>
      <trkpt lat="44.11693" lon="5.27128">
        <ele>783.6</ele>
        <time>2021-09-12T11:37:37Z</time>
      </trkpt>
      <trkpt lat="44.11689" lon="5.27103">
        <ele>782.4</ele>
        <time>2021-09-12T11:37:43Z</time>
      </trkpt>
      <trkpt lat="44.1169" lon="5.27091">
        <ele>781.2</ele>
        <time>2021-09-12T11:37:46Z</time>
      </trkpt>
      <trkpt lat="44.11688" lon="5.27086">
        <ele>780.4</ele>
        <time>2021-09-12T11:37:47Z</time>
      </trkpt>
      <trkpt lat="44.11687" lon="5.27082">
        <ele>779.8</ele>
        <time>2021-09-12T11:37:48Z</time>
      </trkpt>
      <trkpt lat="44.11684" lon="5.27074">
        <ele>778.8</ele>
        <time>2021-09-12T11:37:50Z</time>
      </trkpt>
      <trkpt lat="44.11685" lon="5.27068">
        <ele>777.8</ele>
        <time>2021-09-12T11:37:52Z</time>
      </trkpt>
      <trkpt lat="44.11686" lon="5.27066">
        <ele>777.4</ele>
        <time>2021-09-12T11:37:53Z</time>
      </trkpt>
      <trkpt lat="44.11686" lon="5.27062">
        <ele>777</ele>
        <time>2021-09-12T11:37:54Z</time>
      </trkpt>
      <trkpt lat="44.11684" lon="5.27051">
        <ele>776.2</ele>
        <time>2021-09-12T11:37:56Z</time>
      </trkpt>
      <trkpt lat="44.11686" lon="5.27037">
        <ele>774.8</ele>
        <time>2021-09-12T11:37:59Z</time>
      </trkpt>
      <trkpt lat="44.11687" lon="5.27031">
        <ele>773.8</ele>
        <time>2021-09-12T11:38:01Z</time>
      </trkpt>
      <trkpt lat="44.11687" lon="5.27027">
        <ele>773.6</ele>
        <time>2021-09-12T11:38:02Z</time>
      </trkpt>
      <trkpt lat="44.11689" lon="5.2701">
        <ele>772.4</ele>
        <time>2021-09-12T11:38:06Z</time>
      </trkpt>
      <trkpt lat="44.1169" lon="5.26999">
        <ele>771</ele>
        <time>2021-09-12T11:38:09Z</time>
      </trkpt>
      <trkpt lat="44.11691" lon="5.26991">
        <ele>769.8</ele>
        <time>2021-09-12T11:38:11Z</time>
      </trkpt>
      <trkpt lat="44.1169" lon="5.26986">
        <ele>768.6</ele>
        <time>2021-09-12T11:38:13Z</time>
      </trkpt>
      <trkpt lat="44.11687" lon="5.26983">
        <ele>767.6</ele>
        <time>2021-09-12T11:38:15Z</time>
      </trkpt>
      <trkpt lat="44.11686" lon="5.26981">
        <ele>767.2</ele>
        <time>2021-09-12T11:38:16Z</time>
      </trkpt>
      <trkpt lat="44.11684" lon="5.26971">
        <ele>766</ele>
        <time>2021-09-12T11:38:19Z</time>
      </trkpt>
      <trkpt lat="44.11683" lon="5.2696">
        <ele>765</ele>
        <time>2021-09-12T11:38:21Z</time>
      </trkpt>
      <trkpt lat="44.11682" lon="5.26948">
        <ele>763.6</ele>
        <time>2021-09-12T11:38:23Z</time>
      </trkpt>
      <trkpt lat="44.1168" lon="5.26937">
        <ele>762</ele>
        <time>2021-09-12T11:38:25Z</time>
      </trkpt>
      <trkpt lat="44.11679" lon="5.26928">
        <ele>760.4</ele>
        <time>2021-09-12T11:38:27Z</time>
      </trkpt>
      <trkpt lat="44.11679" lon="5.26917">
        <ele>759</ele>
        <time>2021-09-12T11:38:29Z</time>
      </trkpt>
      <trkpt lat="44.11676" lon="5.26901">
        <ele>757.6</ele>
        <time>2021-09-12T11:38:32Z</time>
      </trkpt>
      <trkpt lat="44.11672" lon="5.26881">
        <ele>756</ele>
        <time>2021-09-12T11:38:35Z</time>
      </trkpt>
      <trkpt lat="44.11671" lon="5.2687">
        <ele>754.8</ele>
        <time>2021-09-12T11:38:37Z</time>
      </trkpt>
      <trkpt lat="44.11671" lon="5.26865">
        <ele>753.6</ele>
        <time>2021-09-12T11:38:39Z</time>
      </trkpt>
      <trkpt lat="44.11667" lon="5.2686">
        <ele>752.4</ele>
        <time>2021-09-12T11:38:43Z</time>
      </trkpt>
      <trkpt lat="44.11654" lon="5.26851">
        <ele>752</ele>
        <time>2021-09-12T11:39:58Z</time>
      </trkpt>
      <trkpt lat="44.11649" lon="5.26853">
        <ele>751.4</ele>
        <time>2021-09-12T11:40:01Z</time>
      </trkpt>
      <trkpt lat="44.11644" lon="5.26857">
        <ele>750.2</ele>
        <time>2021-09-12T11:40:03Z</time>
      </trkpt>
      <trkpt lat="44.11638" lon="5.26858">
        <ele>748.6</ele>
        <time>2021-09-12T11:40:05Z</time>
      </trkpt>
      <trkpt lat="44.11621" lon="5.26853">
        <ele>747</ele>
        <time>2021-09-12T11:40:10Z</time>
      </trkpt>
      <trkpt lat="44.11619" lon="5.2685">
        <ele>746</ele>
        <time>2021-09-12T11:40:11Z</time>
      </trkpt>
      <trkpt lat="44.11616" lon="5.26844">
        <ele>745</ele>
        <time>2021-09-12T11:40:12Z</time>
      </trkpt>
      <trkpt lat="44.11614" lon="5.26837">
        <ele>744.4</ele>
        <time>2021-09-12T11:40:13Z</time>
      </trkpt>
      <trkpt lat="44.11613" lon="5.26831">
        <ele>744</ele>
        <time>2021-09-12T11:40:14Z</time>
      </trkpt>
      <trkpt lat="44.11612" lon="5.26816">
        <ele>742.6</ele>
        <time>2021-09-12T11:40:16Z</time>
      </trkpt>
      <trkpt lat="44.1161" lon="5.26799">
        <ele>741.4</ele>
        <time>2021-09-12T11:40:18Z</time>
      </trkpt>
      <trkpt lat="44.11611" lon="5.26774">
        <ele>740</ele>
        <time>2021-09-12T11:40:21Z</time>
      </trkpt>
      <trkpt lat="44.11612" lon="5.26765">
        <ele>739.4</ele>
        <time>2021-09-12T11:40:22Z</time>
      </trkpt>
      <trkpt lat="44.11618" lon="5.26742">
        <ele>738.8</ele>
        <time>2021-09-12T11:40:25Z</time>
      </trkpt>
      <trkpt lat="44.11631" lon="5.26709">
        <ele>737.8</ele>
        <time>2021-09-12T11:40:30Z</time>
      </trkpt>
      <trkpt lat="44.11634" lon="5.26703">
        <ele>737.4</ele>
        <time>2021-09-12T11:40:31Z</time>
      </trkpt>
      <trkpt lat="44.11641" lon="5.26692">
        <ele>737</ele>
        <time>2021-09-12T11:40:33Z</time>
      </trkpt>
      <trkpt lat="44.11654" lon="5.26679">
        <ele>737.4</ele>
        <time>2021-09-12T11:40:40Z</time>
      </trkpt>
      <trkpt lat="44.11658" lon="5.26665">
        <ele>737.4</ele>
        <time>2021-09-12T11:42:09Z</time>
      </trkpt>
      <trkpt lat="44.11657" lon="5.2666">
        <ele>737.4</ele>
        <time>2021-09-12T11:43:22Z</time>
      </trkpt>
      <trkpt lat="44.11658" lon="5.26664">
        <ele>737.4</ele>
        <time>2021-09-12T11:44:18Z</time>
      </trkpt>
      <trkpt lat="44.11657" lon="5.26657">
        <ele>737.4</ele>
        <time>2021-09-12T11:45:03Z</time>
      </trkpt>
      <trkpt lat="44.11656" lon="5.2665">
        <ele>736</ele>
        <time>2021-09-12T11:45:05Z</time>
      </trkpt>
      <trkpt lat="44.11654" lon="5.26642">
        <ele>735</ele>
        <time>2021-09-12T11:45:07Z</time>
      </trkpt>
      <trkpt lat="44.1165" lon="5.26628">
        <ele>733</ele>
        <time>2021-09-12T11:45:10Z</time>
      </trkpt>
      <trkpt lat="44.11642" lon="5.26585">
        <ele>731.8</ele>
        <time>2021-09-12T11:45:17Z</time>
      </trkpt>
      <trkpt lat="44.11631" lon="5.26536">
        <ele>729.8</ele>
        <time>2021-09-12T11:45:23Z</time>
      </trkpt>
      <trkpt lat="44.11629" lon="5.26519">
        <ele>727.8</ele>
        <time>2021-09-12T11:45:25Z</time>
      </trkpt>
      <trkpt lat="44.11625" lon="5.26501">
        <ele>726.6</ele>
        <time>2021-09-12T11:45:27Z</time>
      </trkpt>
      <trkpt lat="44.1162" lon="5.26476">
        <ele>725.4</ele>
        <time>2021-09-12T11:45:30Z</time>
      </trkpt>
      <trkpt lat="44.11618" lon="5.26458">
        <ele>723.8</ele>
        <time>2021-09-12T11:45:32Z</time>
      </trkpt>
      <trkpt lat="44.11616" lon="5.26449">
        <ele>723.2</ele>
        <time>2021-09-12T11:45:33Z</time>
      </trkpt>
      <trkpt lat="44.11614" lon="5.26441">
        <ele>722.6</ele>
        <time>2021-09-12T11:45:34Z</time>
      </trkpt>
      <trkpt lat="44.1161" lon="5.26424">
        <ele>722.2</ele>
        <time>2021-09-12T11:45:36Z</time>
      </trkpt>
      <trkpt lat="44.11608" lon="5.26406">
        <ele>721.4</ele>
        <time>2021-09-12T11:45:38Z</time>
      </trkpt>
      <trkpt lat="44.11606" lon="5.26381">
        <ele>720.4</ele>
        <time>2021-09-12T11:45:41Z</time>
      </trkpt>
      <trkpt lat="44.11606" lon="5.26366">
        <ele>720</ele>
        <time>2021-09-12T11:45:43Z</time>
      </trkpt>
      <trkpt lat="44.11601" lon="5.26353">
        <ele>719.2</ele>
        <time>2021-09-12T11:45:45Z</time>
      </trkpt>
      <trkpt lat="44.1159" lon="5.26337">
        <ele>718</ele>
        <time>2021-09-12T11:45:48Z</time>
      </trkpt>
      <trkpt lat="44.11581" lon="5.26318">
        <ele>716.8</ele>
        <time>2021-09-12T11:45:51Z</time>
      </trkpt>
      <trkpt lat="44.11573" lon="5.263">
        <ele>715.8</ele>
        <time>2021-09-12T11:45:54Z</time>
      </trkpt>
      <trkpt lat="44.1157" lon="5.26288">
        <ele>715.2</ele>
        <time>2021-09-12T11:45:56Z</time>
      </trkpt>
      <trkpt lat="44.11566" lon="5.26276">
        <ele>714.6</ele>
        <time>2021-09-12T11:45:58Z</time>
      </trkpt>
      <trkpt lat="44.11559" lon="5.26266">
        <ele>713.8</ele>
        <time>2021-09-12T11:46:00Z</time>
      </trkpt>
      <trkpt lat="44.11555" lon="5.26262">
        <ele>713</ele>
        <time>2021-09-12T11:46:01Z</time>
      </trkpt>
      <trkpt lat="44.11547" lon="5.26254">
        <ele>712</ele>
        <time>2021-09-12T11:46:03Z</time>
      </trkpt>
      <trkpt lat="44.11539" lon="5.2624">
        <ele>710.8</ele>
        <time>2021-09-12T11:46:06Z</time>
      </trkpt>
      <trkpt lat="44.11542" lon="5.26225">
        <ele>709.8</ele>
        <time>2021-09-12T11:46:09Z</time>
      </trkpt>
      <trkpt lat="44.11546" lon="5.26214">
        <ele>709.8</ele>
        <time>2021-09-12T11:46:11Z</time>
      </trkpt>
      <trkpt lat="44.11549" lon="5.26208">
        <ele>709.6</ele>
        <time>2021-09-12T11:46:12Z</time>
      </trkpt>
      <trkpt lat="44.1155" lon="5.26202">
        <ele>708.8</ele>
        <time>2021-09-12T11:46:13Z</time>
      </trkpt>
      <trkpt lat="44.1155" lon="5.26196">
        <ele>708.2</ele>
        <time>2021-09-12T11:46:14Z</time>
      </trkpt>
      <trkpt lat="44.11545" lon="5.26186">
        <ele>707.4</ele>
        <time>2021-09-12T11:46:16Z</time>
      </trkpt>
      <trkpt lat="44.11542" lon="5.26181">
        <ele>707</ele>
        <time>2021-09-12T11:46:17Z</time>
      </trkpt>
      <trkpt lat="44.11539" lon="5.26177">
        <ele>706.6</ele>
        <time>2021-09-12T11:46:18Z</time>
      </trkpt>
      <trkpt lat="44.11532" lon="5.26171">
        <ele>705.6</ele>
        <time>2021-09-12T11:46:20Z</time>
      </trkpt>
      <trkpt lat="44.11527" lon="5.26168">
        <ele>704.6</ele>
        <time>2021-09-12T11:46:22Z</time>
      </trkpt>
      <trkpt lat="44.11515" lon="5.26158">
        <ele>704.2</ele>
        <time>2021-09-12T11:49:15Z</time>
      </trkpt>
      <trkpt lat="44.11515" lon="5.26152">
        <ele>704.2</ele>
        <time>2021-09-12T11:51:53Z</time>
      </trkpt>
      <trkpt lat="44.11512" lon="5.26153">
        <ele>704.2</ele>
        <time>2021-09-12T11:52:52Z</time>
      </trkpt>
      <trkpt lat="44.11508" lon="5.26153">
        <ele>704.2</ele>
        <time>2021-09-12T11:52:54Z</time>
      </trkpt>
      <trkpt lat="44.11505" lon="5.26152">
        <ele>703.6</ele>
        <time>2021-09-12T11:52:55Z</time>
      </trkpt>
      <trkpt lat="44.1149" lon="5.26148">
        <ele>702.4</ele>
        <time>2021-09-12T11:52:59Z</time>
      </trkpt>
      <trkpt lat="44.11466" lon="5.26145">
        <ele>701.2</ele>
        <time>2021-09-12T11:53:06Z</time>
      </trkpt>
      <trkpt lat="44.1146" lon="5.26147">
        <ele>701</ele>
        <time>2021-09-12T11:53:08Z</time>
      </trkpt>
      <trkpt lat="44.11452" lon="5.26147">
        <ele>700.6</ele>
        <time>2021-09-12T11:53:11Z</time>
      </trkpt>
      <trkpt lat="44.11441" lon="5.26156">
        <ele>700.6</ele>
        <time>2021-09-12T11:53:16Z</time>
      </trkpt>
      <trkpt lat="44.11438" lon="5.26155">
        <ele>700.4</ele>
        <time>2021-09-12T11:53:18Z</time>
      </trkpt>
      <trkpt lat="44.11425" lon="5.26145">
        <ele>700.2</ele>
        <time>2021-09-12T11:53:24Z</time>
      </trkpt>
      <trkpt lat="44.11415" lon="5.26129">
        <ele>699</ele>
        <time>2021-09-12T11:53:28Z</time>
      </trkpt>
      <trkpt lat="44.11407" lon="5.26118">
        <ele>697.6</ele>
        <time>2021-09-12T11:53:31Z</time>
      </trkpt>
      <trkpt lat="44.11399" lon="5.26115">
        <ele>696.2</ele>
        <time>2021-09-12T11:53:34Z</time>
      </trkpt>
      <trkpt lat="44.11388" lon="5.2611">
        <ele>695</ele>
        <time>2021-09-12T11:53:38Z</time>
      </trkpt>
      <trkpt lat="44.11381" lon="5.26107">
        <ele>694.2</ele>
        <time>2021-09-12T11:53:40Z</time>
      </trkpt>
      <trkpt lat="44.11377" lon="5.26104">
        <ele>694</ele>
        <time>2021-09-12T11:53:41Z</time>
      </trkpt>
      <trkpt lat="44.11369" lon="5.26099">
        <ele>693.8</ele>
        <time>2021-09-12T11:53:43Z</time>
      </trkpt>
      <trkpt lat="44.11355" lon="5.26091">
        <ele>692.4</ele>
        <time>2021-09-12T11:53:46Z</time>
      </trkpt>
      <trkpt lat="44.11351" lon="5.26088">
        <ele>691.8</ele>
        <time>2021-09-12T11:53:47Z</time>
      </trkpt>
      <trkpt lat="44.11347" lon="5.26085">
        <ele>691</ele>
        <time>2021-09-12T11:53:48Z</time>
      </trkpt>
      <trkpt lat="44.11343" lon="5.26084">
        <ele>690.6</ele>
        <time>2021-09-12T11:53:49Z</time>
      </trkpt>
      <trkpt lat="44.11334" lon="5.26081">
        <ele>690</ele>
        <time>2021-09-12T11:53:51Z</time>
      </trkpt>
      <trkpt lat="44.11325" lon="5.26076">
        <ele>689.4</ele>
        <time>2021-09-12T11:53:53Z</time>
      </trkpt>
      <trkpt lat="44.11321" lon="5.26073">
        <ele>689</ele>
        <time>2021-09-12T11:53:54Z</time>
      </trkpt>
      <trkpt lat="44.11317" lon="5.26069">
        <ele>688.4</ele>
        <time>2021-09-12T11:53:55Z</time>
      </trkpt>
      <trkpt lat="44.11313" lon="5.26065">
        <ele>687.8</ele>
        <time>2021-09-12T11:53:56Z</time>
      </trkpt>
      <trkpt lat="44.11306" lon="5.26055">
        <ele>686.2</ele>
        <time>2021-09-12T11:53:58Z</time>
      </trkpt>
      <trkpt lat="44.11302" lon="5.26049">
        <ele>685.6</ele>
        <time>2021-09-12T11:53:59Z</time>
      </trkpt>
      <trkpt lat="44.11298" lon="5.26045">
        <ele>685</ele>
        <time>2021-09-12T11:54:00Z</time>
      </trkpt>
      <trkpt lat="44.1129" lon="5.26034">
        <ele>684.2</ele>
        <time>2021-09-12T11:54:02Z</time>
      </trkpt>
      <trkpt lat="44.11287" lon="5.26027">
        <ele>683.8</ele>
        <time>2021-09-12T11:54:03Z</time>
      </trkpt>
      <trkpt lat="44.1128" lon="5.26006">
        <ele>682.2</ele>
        <time>2021-09-12T11:54:06Z</time>
      </trkpt>
      <trkpt lat="44.11275" lon="5.25991">
        <ele>681</ele>
        <time>2021-09-12T11:54:08Z</time>
      </trkpt>
      <trkpt lat="44.11271" lon="5.25977">
        <ele>679.8</ele>
        <time>2021-09-12T11:54:10Z</time>
      </trkpt>
      <trkpt lat="44.11265" lon="5.25962">
        <ele>678.4</ele>
        <time>2021-09-12T11:54:13Z</time>
      </trkpt>
      <trkpt lat="44.11263" lon="5.25959">
        <ele>677.4</ele>
        <time>2021-09-12T11:54:16Z</time>
      </trkpt>
      <trkpt lat="44.11262" lon="5.25954">
        <ele>677.2</ele>
        <time>2021-09-12T11:55:01Z</time>
      </trkpt>
      <trkpt lat="44.11259" lon="5.25945">
        <ele>677.2</ele>
        <time>2021-09-12T11:55:04Z</time>
      </trkpt>
      <trkpt lat="44.1125" lon="5.25926">
        <ele>675.8</ele>
        <time>2021-09-12T11:55:08Z</time>
      </trkpt>
      <trkpt lat="44.11247" lon="5.25921">
        <ele>675.4</ele>
        <time>2021-09-12T11:55:09Z</time>
      </trkpt>
      <trkpt lat="44.11244" lon="5.25909">
        <ele>674.6</ele>
        <time>2021-09-12T11:55:11Z</time>
      </trkpt>
      <trkpt lat="44.1124" lon="5.25893">
        <ele>673.4</ele>
        <time>2021-09-12T11:55:14Z</time>
      </trkpt>
      <trkpt lat="44.11233" lon="5.25884">
        <ele>672</ele>
        <time>2021-09-12T11:55:16Z</time>
      </trkpt>
      <trkpt lat="44.11217" lon="5.25857">
        <ele>671</ele>
        <time>2021-09-12T11:55:22Z</time>
      </trkpt>
      <trkpt lat="44.11213" lon="5.25851">
        <ele>670</ele>
        <time>2021-09-12T11:55:24Z</time>
      </trkpt>
      <trkpt lat="44.11206" lon="5.25842">
        <ele>668.8</ele>
        <time>2021-09-12T11:55:28Z</time>
      </trkpt>
      <trkpt lat="44.11206" lon="5.2584">
        <ele>668.6</ele>
        <time>2021-09-12T11:55:29Z</time>
      </trkpt>
      <trkpt lat="44.11208" lon="5.25829">
        <ele>667.6</ele>
        <time>2021-09-12T11:55:38Z</time>
      </trkpt>
      <trkpt lat="44.1121" lon="5.25823">
        <ele>667.4</ele>
        <time>2021-09-12T11:55:40Z</time>
      </trkpt>
      <trkpt lat="44.11222" lon="5.25802">
        <ele>666.6</ele>
        <time>2021-09-12T11:55:46Z</time>
      </trkpt>
      <trkpt lat="44.1123" lon="5.25789">
        <ele>665.8</ele>
        <time>2021-09-12T11:55:49Z</time>
      </trkpt>
      <trkpt lat="44.11235" lon="5.25779">
        <ele>665.4</ele>
        <time>2021-09-12T11:55:51Z</time>
      </trkpt>
      <trkpt lat="44.11242" lon="5.25769">
        <ele>665</ele>
        <time>2021-09-12T11:55:53Z</time>
      </trkpt>
      <trkpt lat="44.11257" lon="5.25749">
        <ele>664.2</ele>
        <time>2021-09-12T11:55:57Z</time>
      </trkpt>
      <trkpt lat="44.11265" lon="5.25742">
        <ele>663.2</ele>
        <time>2021-09-12T11:55:59Z</time>
      </trkpt>
      <trkpt lat="44.11268" lon="5.25738">
        <ele>663</ele>
        <time>2021-09-12T11:56:00Z</time>
      </trkpt>
      <trkpt lat="44.11272" lon="5.25734">
        <ele>662.8</ele>
        <time>2021-09-12T11:56:01Z</time>
      </trkpt>
      <trkpt lat="44.1128" lon="5.25727">
        <ele>662.4</ele>
        <time>2021-09-12T11:56:03Z</time>
      </trkpt>
      <trkpt lat="44.11289" lon="5.25713">
        <ele>661.8</ele>
        <time>2021-09-12T11:56:06Z</time>
      </trkpt>
      <trkpt lat="44.11292" lon="5.25707">
        <ele>662</ele>
        <time>2021-09-12T11:56:07Z</time>
      </trkpt>
      <trkpt lat="44.11297" lon="5.25695">
        <ele>661.6</ele>
        <time>2021-09-12T11:56:09Z</time>
      </trkpt>
      <trkpt lat="44.11299" lon="5.25689">
        <ele>661.2</ele>
        <time>2021-09-12T11:56:10Z</time>
      </trkpt>
      <trkpt lat="44.113" lon="5.25683">
        <ele>660.8</ele>
        <time>2021-09-12T11:56:11Z</time>
      </trkpt>
      <trkpt lat="44.11303" lon="5.2567">
        <ele>659.4</ele>
        <time>2021-09-12T11:56:13Z</time>
      </trkpt>
      <trkpt lat="44.11308" lon="5.25657">
        <ele>658.2</ele>
        <time>2021-09-12T11:56:15Z</time>
      </trkpt>
      <trkpt lat="44.11311" lon="5.25652">
        <ele>657.8</ele>
        <time>2021-09-12T11:56:16Z</time>
      </trkpt>
      <trkpt lat="44.11318" lon="5.2564">
        <ele>656.8</ele>
        <time>2021-09-12T11:56:18Z</time>
      </trkpt>
      <trkpt lat="44.11325" lon="5.25629">
        <ele>655.6</ele>
        <time>2021-09-12T11:56:20Z</time>
      </trkpt>
      <trkpt lat="44.11332" lon="5.25612">
        <ele>654.4</ele>
        <time>2021-09-12T11:56:23Z</time>
      </trkpt>
      <trkpt lat="44.11341" lon="5.25591">
        <ele>653.2</ele>
        <time>2021-09-12T11:56:26Z</time>
      </trkpt>
      <trkpt lat="44.11345" lon="5.25582">
        <ele>652.2</ele>
        <time>2021-09-12T11:56:28Z</time>
      </trkpt>
      <trkpt lat="44.11348" lon="5.25573">
        <ele>651</ele>
        <time>2021-09-12T11:56:30Z</time>
      </trkpt>
      <trkpt lat="44.11351" lon="5.25559">
        <ele>649.8</ele>
        <time>2021-09-12T11:56:33Z</time>
      </trkpt>
      <trkpt lat="44.11349" lon="5.25541">
        <ele>648.6</ele>
        <time>2021-09-12T11:56:37Z</time>
      </trkpt>
      <trkpt lat="44.1135" lon="5.25533">
        <ele>647.2</ele>
        <time>2021-09-12T11:56:40Z</time>
      </trkpt>
      <trkpt lat="44.1135" lon="5.25531">
        <ele>645.8</ele>
        <time>2021-09-12T11:56:42Z</time>
      </trkpt>
      <trkpt lat="44.1135" lon="5.25529">
        <ele>645.2</ele>
        <time>2021-09-12T11:56:43Z</time>
      </trkpt>
      <trkpt lat="44.11347" lon="5.25527">
        <ele>644.6</ele>
        <time>2021-09-12T11:56:45Z</time>
      </trkpt>
      <trkpt lat="44.11331" lon="5.25518">
        <ele>644.6</ele>
        <time>2021-09-12T11:57:29Z</time>
      </trkpt>
      <trkpt lat="44.11312" lon="5.25513">
        <ele>645.8</ele>
        <time>2021-09-12T11:57:39Z</time>
      </trkpt>
      <trkpt lat="44.11296" lon="5.2552">
        <ele>646.8</ele>
        <time>2021-09-12T11:57:48Z</time>
      </trkpt>
      <trkpt lat="44.11292" lon="5.25525">
        <ele>647.2</ele>
        <time>2021-09-12T11:57:51Z</time>
      </trkpt>
      <trkpt lat="44.11288" lon="5.25529">
        <ele>647.8</ele>
        <time>2021-09-12T11:57:54Z</time>
      </trkpt>
      <trkpt lat="44.11283" lon="5.25536">
        <ele>648.4</ele>
        <time>2021-09-12T11:57:59Z</time>
      </trkpt>
      <trkpt lat="44.11277" lon="5.25536">
        <ele>648.8</ele>
        <time>2021-09-12T11:58:03Z</time>
      </trkpt>
      <trkpt lat="44.11274" lon="5.25534">
        <ele>648.8</ele>
        <time>2021-09-12T11:58:05Z</time>
      </trkpt>
      <trkpt lat="44.11268" lon="5.25523">
        <ele>649</ele>
        <time>2021-09-12T11:58:10Z</time>
      </trkpt>
      <trkpt lat="44.11268" lon="5.25511">
        <ele>648.2</ele>
        <time>2021-09-12T11:58:14Z</time>
      </trkpt>
      <trkpt lat="44.11267" lon="5.25509">
        <ele>647.8</ele>
        <time>2021-09-12T11:58:15Z</time>
      </trkpt>
      <trkpt lat="44.11263" lon="5.25501">
        <ele>647.2</ele>
        <time>2021-09-12T11:58:18Z</time>
      </trkpt>
      <trkpt lat="44.11259" lon="5.25499">
        <ele>646.6</ele>
        <time>2021-09-12T11:58:20Z</time>
      </trkpt>
      <trkpt lat="44.11255" lon="5.25499">
        <ele>646.4</ele>
        <time>2021-09-12T11:58:22Z</time>
      </trkpt>
      <trkpt lat="44.11251" lon="5.25494">
        <ele>646.2</ele>
        <time>2021-09-12T11:58:25Z</time>
      </trkpt>
      <trkpt lat="44.11238" lon="5.25489">
        <ele>645.4</ele>
        <time>2021-09-12T11:58:32Z</time>
      </trkpt>
      <trkpt lat="44.11236" lon="5.25485">
        <ele>645.2</ele>
        <time>2021-09-12T11:58:36Z</time>
      </trkpt>
      <trkpt lat="44.11232" lon="5.25477">
        <ele>644.6</ele>
        <time>2021-09-12T11:58:42Z</time>
      </trkpt>
      <trkpt lat="44.1123" lon="5.25476">
        <ele>644.4</ele>
        <time>2021-09-12T11:58:43Z</time>
      </trkpt>
      <trkpt lat="44.11224" lon="5.25466">
        <ele>643.6</ele>
        <time>2021-09-12T11:58:46Z</time>
      </trkpt>
      <trkpt lat="44.11222" lon="5.25463">
        <ele>643.4</ele>
        <time>2021-09-12T11:58:47Z</time>
      </trkpt>
      <trkpt lat="44.11218" lon="5.25454">
        <ele>642.8</ele>
        <time>2021-09-12T11:58:50Z</time>
      </trkpt>
      <trkpt lat="44.11214" lon="5.25452">
        <ele>642</ele>
        <time>2021-09-12T11:58:52Z</time>
      </trkpt>
      <trkpt lat="44.1121" lon="5.25445">
        <ele>640.8</ele>
        <time>2021-09-12T11:58:55Z</time>
      </trkpt>
      <trkpt lat="44.11208" lon="5.25439">
        <ele>640.4</ele>
        <time>2021-09-12T11:58:57Z</time>
      </trkpt>
      <trkpt lat="44.11203" lon="5.25434">
        <ele>639.6</ele>
        <time>2021-09-12T11:58:59Z</time>
      </trkpt>
      <trkpt lat="44.11198" lon="5.25429">
        <ele>638.4</ele>
        <time>2021-09-12T11:59:01Z</time>
      </trkpt>
      <trkpt lat="44.11194" lon="5.25425">
        <ele>637</ele>
        <time>2021-09-12T11:59:03Z</time>
      </trkpt>
      <trkpt lat="44.11193" lon="5.25422">
        <ele>636.6</ele>
        <time>2021-09-12T11:59:04Z</time>
      </trkpt>
      <trkpt lat="44.11192" lon="5.25415">
        <ele>636</ele>
        <time>2021-09-12T11:59:06Z</time>
      </trkpt>
      <trkpt lat="44.11189" lon="5.25409">
        <ele>634.8</ele>
        <time>2021-09-12T11:59:08Z</time>
      </trkpt>
      <trkpt lat="44.11184" lon="5.25404">
        <ele>633.6</ele>
        <time>2021-09-12T11:59:10Z</time>
      </trkpt>
      <trkpt lat="44.11182" lon="5.25398">
        <ele>632.4</ele>
        <time>2021-09-12T11:59:12Z</time>
      </trkpt>
      <trkpt lat="44.11177" lon="5.25392">
        <ele>631.4</ele>
        <time>2021-09-12T11:59:15Z</time>
      </trkpt>
      <trkpt lat="44.11177" lon="5.2539">
        <ele>631.2</ele>
        <time>2021-09-12T11:59:16Z</time>
      </trkpt>
      <trkpt lat="44.11176" lon="5.25389">
        <ele>630.8</ele>
        <time>2021-09-12T11:59:17Z</time>
      </trkpt>
      <trkpt lat="44.11172" lon="5.25385">
        <ele>630</ele>
        <time>2021-09-12T11:59:19Z</time>
      </trkpt>
      <trkpt lat="44.11165" lon="5.25375">
        <ele>628.8</ele>
        <time>2021-09-12T11:59:23Z</time>
      </trkpt>
      <trkpt lat="44.1116" lon="5.2537">
        <ele>627.4</ele>
        <time>2021-09-12T11:59:26Z</time>
      </trkpt>
      <trkpt lat="44.11156" lon="5.25368">
        <ele>626</ele>
        <time>2021-09-12T11:59:28Z</time>
      </trkpt>
      <trkpt lat="44.11153" lon="5.25364">
        <ele>625</ele>
        <time>2021-09-12T11:59:30Z</time>
      </trkpt>
      <trkpt lat="44.11144" lon="5.25357">
        <ele>623.8</ele>
        <time>2021-09-12T11:59:33Z</time>
      </trkpt>
      <trkpt lat="44.11142" lon="5.25356">
        <ele>623.6</ele>
        <time>2021-09-12T11:59:34Z</time>
      </trkpt>
      <trkpt lat="44.11137" lon="5.25353">
        <ele>622.8</ele>
        <time>2021-09-12T11:59:36Z</time>
      </trkpt>
      <trkpt lat="44.11135" lon="5.2535">
        <ele>622.2</ele>
        <time>2021-09-12T11:59:38Z</time>
      </trkpt>
      <trkpt lat="44.11128" lon="5.2535">
        <ele>621.4</ele>
        <time>2021-09-12T11:59:41Z</time>
      </trkpt>
      <trkpt lat="44.11124" lon="5.25347">
        <ele>620.2</ele>
        <time>2021-09-12T11:59:43Z</time>
      </trkpt>
      <trkpt lat="44.11122" lon="5.25344">
        <ele>619.8</ele>
        <time>2021-09-12T11:59:44Z</time>
      </trkpt>
      <trkpt lat="44.11121" lon="5.25343">
        <ele>619.2</ele>
        <time>2021-09-12T11:59:46Z</time>
      </trkpt>
      <trkpt lat="44.11119" lon="5.25342">
        <ele>618</ele>
        <time>2021-09-12T12:00:04Z</time>
      </trkpt>
      <trkpt lat="44.11119" lon="5.25342">
        <ele>618</ele>
        <time>2021-09-12T12:00:22Z</time>
      </trkpt>
      <trkpt lat="44.11118" lon="5.2534">
        <ele>617.8</ele>
        <time>2021-09-12T12:00:33Z</time>
      </trkpt>
      <trkpt lat="44.11118" lon="5.25328">
        <ele>617.8</ele>
        <time>2021-09-12T12:00:37Z</time>
      </trkpt>
      <trkpt lat="44.11121" lon="5.25323">
        <ele>616.8</ele>
        <time>2021-09-12T12:00:40Z</time>
      </trkpt>
      <trkpt lat="44.11125" lon="5.2532">
        <ele>616.2</ele>
        <time>2021-09-12T12:00:43Z</time>
      </trkpt>
      <trkpt lat="44.11126" lon="5.25315">
        <ele>615.8</ele>
        <time>2021-09-12T12:00:46Z</time>
      </trkpt>
      <trkpt lat="44.11143" lon="5.25282">
        <ele>614.6</ele>
        <time>2021-09-12T12:01:00Z</time>
      </trkpt>
      <trkpt lat="44.11144" lon="5.25273">
        <ele>613</ele>
        <time>2021-09-12T12:01:03Z</time>
      </trkpt>
      <trkpt lat="44.11146" lon="5.25264">
        <ele>611.8</ele>
        <time>2021-09-12T12:01:05Z</time>
      </trkpt>
      <trkpt lat="44.11148" lon="5.25252">
        <ele>610.4</ele>
        <time>2021-09-12T12:01:08Z</time>
      </trkpt>
      <trkpt lat="44.11148" lon="5.25248">
        <ele>610</ele>
        <time>2021-09-12T12:01:09Z</time>
      </trkpt>
      <trkpt lat="44.11148" lon="5.25242">
        <ele>609</ele>
        <time>2021-09-12T12:01:11Z</time>
      </trkpt>
      <trkpt lat="44.11149" lon="5.25239">
        <ele>608.4</ele>
        <time>2021-09-12T12:01:12Z</time>
      </trkpt>
      <trkpt lat="44.1115" lon="5.25236">
        <ele>607.8</ele>
        <time>2021-09-12T12:01:13Z</time>
      </trkpt>
      <trkpt lat="44.11153" lon="5.25224">
        <ele>606.8</ele>
        <time>2021-09-12T12:01:16Z</time>
      </trkpt>
      <trkpt lat="44.11153" lon="5.2521">
        <ele>605.8</ele>
        <time>2021-09-12T12:01:20Z</time>
      </trkpt>
      <trkpt lat="44.11154" lon="5.25207">
        <ele>605.4</ele>
        <time>2021-09-12T12:01:21Z</time>
      </trkpt>
      <trkpt lat="44.11156" lon="5.25198">
        <ele>604.2</ele>
        <time>2021-09-12T12:01:23Z</time>
      </trkpt>
      <trkpt lat="44.11161" lon="5.25179">
        <ele>602.8</ele>
        <time>2021-09-12T12:01:26Z</time>
      </trkpt>
      <trkpt lat="44.11166" lon="5.25168">
        <ele>601.4</ele>
        <time>2021-09-12T12:01:28Z</time>
      </trkpt>
      <trkpt lat="44.1117" lon="5.25159">
        <ele>599.8</ele>
        <time>2021-09-12T12:01:30Z</time>
      </trkpt>
      <trkpt lat="44.11176" lon="5.25141">
        <ele>598.6</ele>
        <time>2021-09-12T12:01:35Z</time>
      </trkpt>
      <trkpt lat="44.11181" lon="5.25127">
        <ele>597.2</ele>
        <time>2021-09-12T12:01:38Z</time>
      </trkpt>
      <trkpt lat="44.11184" lon="5.25118">
        <ele>595.6</ele>
        <time>2021-09-12T12:01:40Z</time>
      </trkpt>
      <trkpt lat="44.11188" lon="5.25107">
        <ele>594.4</ele>
        <time>2021-09-12T12:01:42Z</time>
      </trkpt>
      <trkpt lat="44.11191" lon="5.25098">
        <ele>593.2</ele>
        <time>2021-09-12T12:01:44Z</time>
      </trkpt>
      <trkpt lat="44.11194" lon="5.25088">
        <ele>592</ele>
        <time>2021-09-12T12:01:46Z</time>
      </trkpt>
      <trkpt lat="44.11197" lon="5.25078">
        <ele>591</ele>
        <time>2021-09-12T12:01:48Z</time>
      </trkpt>
      <trkpt lat="44.11199" lon="5.25069">
        <ele>589.6</ele>
        <time>2021-09-12T12:01:50Z</time>
      </trkpt>
      <trkpt lat="44.11202" lon="5.25061">
        <ele>588.2</ele>
        <time>2021-09-12T12:01:52Z</time>
      </trkpt>
      <trkpt lat="44.11204" lon="5.25051">
        <ele>587</ele>
        <time>2021-09-12T12:01:54Z</time>
      </trkpt>
      <trkpt lat="44.11206" lon="5.2504">
        <ele>586</ele>
        <time>2021-09-12T12:01:56Z</time>
      </trkpt>
      <trkpt lat="44.11209" lon="5.25031">
        <ele>584.6</ele>
        <time>2021-09-12T12:01:58Z</time>
      </trkpt>
      <trkpt lat="44.11212" lon="5.25021">
        <ele>583.6</ele>
        <time>2021-09-12T12:02:00Z</time>
      </trkpt>
      <trkpt lat="44.11217" lon="5.25012">
        <ele>582.4</ele>
        <time>2021-09-12T12:02:02Z</time>
      </trkpt>
      <trkpt lat="44.11221" lon="5.25002">
        <ele>580.6</ele>
        <time>2021-09-12T12:02:04Z</time>
      </trkpt>
      <trkpt lat="44.11224" lon="5.24992">
        <ele>579.2</ele>
        <time>2021-09-12T12:02:06Z</time>
      </trkpt>
      <trkpt lat="44.11226" lon="5.24984">
        <ele>578</ele>
        <time>2021-09-12T12:02:08Z</time>
      </trkpt>
      <trkpt lat="44.11229" lon="5.24979">
        <ele>577</ele>
        <time>2021-09-12T12:02:10Z</time>
      </trkpt>
      <trkpt lat="44.11232" lon="5.24971">
        <ele>575.8</ele>
        <time>2021-09-12T12:02:13Z</time>
      </trkpt>
      <trkpt lat="44.11235" lon="5.24965">
        <ele>574.4</ele>
        <time>2021-09-12T12:02:15Z</time>
      </trkpt>
      <trkpt lat="44.11238" lon="5.24958">
        <ele>573</ele>
        <time>2021-09-12T12:02:17Z</time>
      </trkpt>
      <trkpt lat="44.11242" lon="5.24948">
        <ele>571.8</ele>
        <time>2021-09-12T12:02:19Z</time>
      </trkpt>
      <trkpt lat="44.11246" lon="5.24938">
        <ele>570.4</ele>
        <time>2021-09-12T12:02:21Z</time>
      </trkpt>
      <trkpt lat="44.11249" lon="5.24931">
        <ele>569.4</ele>
        <time>2021-09-12T12:02:23Z</time>
      </trkpt>
      <trkpt lat="44.1125" lon="5.24929">
        <ele>569</ele>
        <time>2021-09-12T12:02:24Z</time>
      </trkpt>
      <trkpt lat="44.1125" lon="5.24924">
        <ele>568.4</ele>
        <time>2021-09-12T12:02:26Z</time>
      </trkpt>
      <trkpt lat="44.11253" lon="5.24921">
        <ele>568.4</ele>
        <time>2021-09-12T12:02:28Z</time>
      </trkpt>
      <trkpt lat="44.11261" lon="5.2492">
        <ele>569.4</ele>
        <time>2021-09-12T12:02:38Z</time>
      </trkpt>
      <trkpt lat="44.11261" lon="5.24908">
        <ele>568.6</ele>
        <time>2021-09-12T12:03:47Z</time>
      </trkpt>
      <trkpt lat="44.11246" lon="5.24893">
        <ele>568</ele>
        <time>2021-09-12T12:03:52Z</time>
      </trkpt>
      <trkpt lat="44.11238" lon="5.24887">
        <ele>566.4</ele>
        <time>2021-09-12T12:03:54Z</time>
      </trkpt>
      <trkpt lat="44.11231" lon="5.2488">
        <ele>565</ele>
        <time>2021-09-12T12:03:56Z</time>
      </trkpt>
      <trkpt lat="44.11219" lon="5.24874">
        <ele>563.8</ele>
        <time>2021-09-12T12:03:59Z</time>
      </trkpt>
      <trkpt lat="44.11211" lon="5.24862">
        <ele>562.6</ele>
        <time>2021-09-12T12:04:02Z</time>
      </trkpt>
      <trkpt lat="44.11204" lon="5.24854">
        <ele>561.6</ele>
        <time>2021-09-12T12:04:04Z</time>
      </trkpt>
      <trkpt lat="44.11195" lon="5.24846">
        <ele>560.4</ele>
        <time>2021-09-12T12:04:06Z</time>
      </trkpt>
      <trkpt lat="44.11187" lon="5.24836">
        <ele>559.4</ele>
        <time>2021-09-12T12:04:08Z</time>
      </trkpt>
      <trkpt lat="44.11173" lon="5.24817">
        <ele>557.8</ele>
        <time>2021-09-12T12:04:11Z</time>
      </trkpt>
      <trkpt lat="44.11166" lon="5.24803">
        <ele>556.4</ele>
        <time>2021-09-12T12:04:13Z</time>
      </trkpt>
      <trkpt lat="44.11158" lon="5.24786">
        <ele>555</ele>
        <time>2021-09-12T12:04:15Z</time>
      </trkpt>
      <trkpt lat="44.11146" lon="5.24759">
        <ele>553.6</ele>
        <time>2021-09-12T12:04:18Z</time>
      </trkpt>
      <trkpt lat="44.11137" lon="5.24742">
        <ele>551.4</ele>
        <time>2021-09-12T12:04:20Z</time>
      </trkpt>
      <trkpt lat="44.11132" lon="5.24734">
        <ele>550.4</ele>
        <time>2021-09-12T12:04:21Z</time>
      </trkpt>
      <trkpt lat="44.11125" lon="5.24717">
        <ele>549</ele>
        <time>2021-09-12T12:04:23Z</time>
      </trkpt>
      <trkpt lat="44.11121" lon="5.24708">
        <ele>548.8</ele>
        <time>2021-09-12T12:04:24Z</time>
      </trkpt>
      <trkpt lat="44.11111" lon="5.24679">
        <ele>547.6</ele>
        <time>2021-09-12T12:04:27Z</time>
      </trkpt>
      <trkpt lat="44.11108" lon="5.24669">
        <ele>546.6</ele>
        <time>2021-09-12T12:04:28Z</time>
      </trkpt>
      <trkpt lat="44.11105" lon="5.24659">
        <ele>545.4</ele>
        <time>2021-09-12T12:04:29Z</time>
      </trkpt>
      <trkpt lat="44.11102" lon="5.24639">
        <ele>544.2</ele>
        <time>2021-09-12T12:04:31Z</time>
      </trkpt>
      <trkpt lat="44.11099" lon="5.24619">
        <ele>543</ele>
        <time>2021-09-12T12:04:33Z</time>
      </trkpt>
      <trkpt lat="44.11096" lon="5.24598">
        <ele>541.8</ele>
        <time>2021-09-12T12:04:35Z</time>
      </trkpt>
      <trkpt lat="44.11094" lon="5.24579">
        <ele>540.8</ele>
        <time>2021-09-12T12:04:37Z</time>
      </trkpt>
      <trkpt lat="44.11091" lon="5.24563">
        <ele>539.4</ele>
        <time>2021-09-12T12:04:39Z</time>
      </trkpt>
      <trkpt lat="44.11086" lon="5.2454">
        <ele>538.4</ele>
        <time>2021-09-12T12:04:42Z</time>
      </trkpt>
      <trkpt lat="44.11084" lon="5.24534">
        <ele>537.8</ele>
        <time>2021-09-12T12:04:43Z</time>
      </trkpt>
      <trkpt lat="44.11081" lon="5.24528">
        <ele>537.2</ele>
        <time>2021-09-12T12:04:44Z</time>
      </trkpt>
      <trkpt lat="44.11075" lon="5.24519">
        <ele>535.8</ele>
        <time>2021-09-12T12:04:46Z</time>
      </trkpt>
      <trkpt lat="44.11073" lon="5.24514">
        <ele>534.8</ele>
        <time>2021-09-12T12:04:47Z</time>
      </trkpt>
      <trkpt lat="44.1107" lon="5.24509">
        <ele>534</ele>
        <time>2021-09-12T12:04:48Z</time>
      </trkpt>
      <trkpt lat="44.11061" lon="5.2449">
        <ele>532.6</ele>
        <time>2021-09-12T12:04:51Z</time>
      </trkpt>
      <trkpt lat="44.11055" lon="5.24477">
        <ele>530.4</ele>
        <time>2021-09-12T12:04:53Z</time>
      </trkpt>
      <trkpt lat="44.11048" lon="5.24463">
        <ele>528.6</ele>
        <time>2021-09-12T12:04:55Z</time>
      </trkpt>
      <trkpt lat="44.11042" lon="5.24449">
        <ele>527</ele>
        <time>2021-09-12T12:04:57Z</time>
      </trkpt>
      <trkpt lat="44.11036" lon="5.24435">
        <ele>525.6</ele>
        <time>2021-09-12T12:04:59Z</time>
      </trkpt>
      <trkpt lat="44.11031" lon="5.24422">
        <ele>524</ele>
        <time>2021-09-12T12:05:01Z</time>
      </trkpt>
      <trkpt lat="44.11024" lon="5.24411">
        <ele>522.4</ele>
        <time>2021-09-12T12:05:03Z</time>
      </trkpt>
      <trkpt lat="44.11022" lon="5.24407">
        <ele>521.8</ele>
        <time>2021-09-12T12:05:04Z</time>
      </trkpt>
      <trkpt lat="44.1102" lon="5.24402">
        <ele>521.4</ele>
        <time>2021-09-12T12:05:05Z</time>
      </trkpt>
      <trkpt lat="44.11018" lon="5.2439">
        <ele>520</ele>
        <time>2021-09-12T12:05:08Z</time>
      </trkpt>
      <trkpt lat="44.1102" lon="5.24388">
        <ele>519.6</ele>
        <time>2021-09-12T12:05:09Z</time>
      </trkpt>
      <trkpt lat="44.11023" lon="5.24385">
        <ele>519</ele>
        <time>2021-09-12T12:05:22Z</time>
      </trkpt>
      <trkpt lat="44.1103" lon="5.24381">
        <ele>518.8</ele>
        <time>2021-09-12T12:05:36Z</time>
      </trkpt>
      <trkpt lat="44.1108" lon="5.24348">
        <ele>519.4</ele>
        <time>2021-09-12T12:05:57Z</time>
      </trkpt>
      <trkpt lat="44.11125" lon="5.24305">
        <ele>519.8</ele>
        <time>2021-09-12T12:06:17Z</time>
      </trkpt>
      <trkpt lat="44.11129" lon="5.243">
        <ele>520</ele>
        <time>2021-09-12T12:06:19Z</time>
      </trkpt>
      <trkpt lat="44.11144" lon="5.24286">
        <ele>521</ele>
        <time>2021-09-12T12:06:26Z</time>
      </trkpt>
      <trkpt lat="44.11158" lon="5.24273">
        <ele>522.2</ele>
        <time>2021-09-12T12:06:33Z</time>
      </trkpt>
      <trkpt lat="44.11198" lon="5.2424">
        <ele>523.2</ele>
        <time>2021-09-12T12:06:49Z</time>
      </trkpt>
      <trkpt lat="44.11224" lon="5.24219">
        <ele>524.4</ele>
        <time>2021-09-12T12:06:58Z</time>
      </trkpt>
      <trkpt lat="44.11243" lon="5.24202">
        <ele>525.4</ele>
        <time>2021-09-12T12:07:05Z</time>
      </trkpt>
      <trkpt lat="44.11255" lon="5.24193">
        <ele>526.6</ele>
        <time>2021-09-12T12:07:10Z</time>
      </trkpt>
      <trkpt lat="44.11267" lon="5.24184">
        <ele>527.6</ele>
        <time>2021-09-12T12:07:15Z</time>
      </trkpt>
      <trkpt lat="44.1129" lon="5.24168">
        <ele>528.8</ele>
        <time>2021-09-12T12:07:24Z</time>
      </trkpt>
      <trkpt lat="44.11306" lon="5.24151">
        <ele>529.8</ele>
        <time>2021-09-12T12:07:34Z</time>
      </trkpt>
      <trkpt lat="44.11308" lon="5.24151">
        <ele>529.8</ele>
        <time>2021-09-12T12:08:04Z</time>
      </trkpt>
      <trkpt lat="44.1131" lon="5.24143">
        <ele>529.8</ele>
        <time>2021-09-12T12:08:07Z</time>
      </trkpt>
      <trkpt lat="44.11315" lon="5.24113">
        <ele>528.8</ele>
        <time>2021-09-12T12:08:12Z</time>
      </trkpt>
      <trkpt lat="44.11317" lon="5.24088">
        <ele>527.2</ele>
        <time>2021-09-12T12:08:15Z</time>
      </trkpt>
      <trkpt lat="44.11319" lon="5.24069">
        <ele>525.8</ele>
        <time>2021-09-12T12:08:17Z</time>
      </trkpt>
      <trkpt lat="44.11319" lon="5.24049">
        <ele>524.2</ele>
        <time>2021-09-12T12:08:19Z</time>
      </trkpt>
      <trkpt lat="44.11319" lon="5.2403">
        <ele>522.8</ele>
        <time>2021-09-12T12:08:21Z</time>
      </trkpt>
      <trkpt lat="44.1132" lon="5.24012">
        <ele>521.4</ele>
        <time>2021-09-12T12:08:23Z</time>
      </trkpt>
      <trkpt lat="44.11321" lon="5.23997">
        <ele>519.8</ele>
        <time>2021-09-12T12:08:25Z</time>
      </trkpt>
      <trkpt lat="44.11319" lon="5.23986">
        <ele>518.2</ele>
        <time>2021-09-12T12:08:27Z</time>
      </trkpt>
      <trkpt lat="44.1132" lon="5.23981">
        <ele>517.2</ele>
        <time>2021-09-12T12:08:28Z</time>
      </trkpt>
      <trkpt lat="44.1132" lon="5.23975">
        <ele>516.6</ele>
        <time>2021-09-12T12:08:29Z</time>
      </trkpt>
      <trkpt lat="44.11321" lon="5.2396">
        <ele>515.4</ele>
        <time>2021-09-12T12:08:31Z</time>
      </trkpt>
      <trkpt lat="44.11321" lon="5.23946">
        <ele>514</ele>
        <time>2021-09-12T12:08:34Z</time>
      </trkpt>
      <trkpt lat="44.1132" lon="5.23928">
        <ele>513.2</ele>
        <time>2021-09-12T12:08:43Z</time>
      </trkpt>
      <trkpt lat="44.11318" lon="5.23914">
        <ele>512.6</ele>
        <time>2021-09-12T12:08:45Z</time>
      </trkpt>
      <trkpt lat="44.11313" lon="5.23887">
        <ele>511</ele>
        <time>2021-09-12T12:08:48Z</time>
      </trkpt>
      <trkpt lat="44.11307" lon="5.23867">
        <ele>509.6</ele>
        <time>2021-09-12T12:08:50Z</time>
      </trkpt>
      <trkpt lat="44.11302" lon="5.23846">
        <ele>507.8</ele>
        <time>2021-09-12T12:08:52Z</time>
      </trkpt>
      <trkpt lat="44.11295" lon="5.23825">
        <ele>506</ele>
        <time>2021-09-12T12:08:54Z</time>
      </trkpt>
      <trkpt lat="44.11287" lon="5.23803">
        <ele>504.2</ele>
        <time>2021-09-12T12:08:56Z</time>
      </trkpt>
      <trkpt lat="44.1128" lon="5.2378">
        <ele>502.6</ele>
        <time>2021-09-12T12:08:58Z</time>
      </trkpt>
      <trkpt lat="44.11273" lon="5.23759">
        <ele>501.2</ele>
        <time>2021-09-12T12:09:01Z</time>
      </trkpt>
      <trkpt lat="44.11273" lon="5.23752">
        <ele>500.2</ele>
        <time>2021-09-12T12:09:03Z</time>
      </trkpt>
      <trkpt lat="44.11275" lon="5.23748">
        <ele>500</ele>
        <time>2021-09-12T12:09:04Z</time>
      </trkpt>
      <trkpt lat="44.11281" lon="5.23738">
        <ele>498.8</ele>
        <time>2021-09-12T12:09:09Z</time>
      </trkpt>
      <trkpt lat="44.11281" lon="5.23739">
        <ele>498.2</ele>
        <time>2021-09-12T12:09:12Z</time>
      </trkpt>
      <trkpt lat="44.11281" lon="5.23739">
        <ele>497.8</ele>
        <time>2021-09-12T12:09:16Z</time>
      </trkpt>
      <trkpt lat="44.11286" lon="5.23727">
        <ele>497.4</ele>
        <time>2021-09-12T12:09:49Z</time>
      </trkpt>
      <trkpt lat="44.11293" lon="5.23711">
        <ele>496.6</ele>
        <time>2021-09-12T12:09:52Z</time>
      </trkpt>
      <trkpt lat="44.11299" lon="5.23701">
        <ele>495.6</ele>
        <time>2021-09-12T12:09:54Z</time>
      </trkpt>
      <trkpt lat="44.11302" lon="5.23688">
        <ele>493.4</ele>
        <time>2021-09-12T12:09:56Z</time>
      </trkpt>
      <trkpt lat="44.11305" lon="5.23674">
        <ele>491.6</ele>
        <time>2021-09-12T12:09:58Z</time>
      </trkpt>
      <trkpt lat="44.11306" lon="5.2366">
        <ele>490</ele>
        <time>2021-09-12T12:10:00Z</time>
      </trkpt>
      <trkpt lat="44.11306" lon="5.23654">
        <ele>489.2</ele>
        <time>2021-09-12T12:10:01Z</time>
      </trkpt>
      <trkpt lat="44.11307" lon="5.23646">
        <ele>488.2</ele>
        <time>2021-09-12T12:10:02Z</time>
      </trkpt>
      <trkpt lat="44.11306" lon="5.23639">
        <ele>487.4</ele>
        <time>2021-09-12T12:10:03Z</time>
      </trkpt>
      <trkpt lat="44.11305" lon="5.2363">
        <ele>486.4</ele>
        <time>2021-09-12T12:10:04Z</time>
      </trkpt>
      <trkpt lat="44.11303" lon="5.23615">
        <ele>485</ele>
        <time>2021-09-12T12:10:06Z</time>
      </trkpt>
      <trkpt lat="44.11303" lon="5.23606">
        <ele>483.6</ele>
        <time>2021-09-12T12:10:08Z</time>
      </trkpt>
      <trkpt lat="44.11305" lon="5.23602">
        <ele>483</ele>
        <time>2021-09-12T12:10:09Z</time>
      </trkpt>
      <trkpt lat="44.11315" lon="5.23595">
        <ele>482</ele>
        <time>2021-09-12T12:10:11Z</time>
      </trkpt>
      <trkpt lat="44.11332" lon="5.23587">
        <ele>480</ele>
        <time>2021-09-12T12:10:13Z</time>
      </trkpt>
      <trkpt lat="44.11341" lon="5.23582">
        <ele>478.2</ele>
        <time>2021-09-12T12:10:14Z</time>
      </trkpt>
      <trkpt lat="44.11349" lon="5.23578">
        <ele>476.2</ele>
        <time>2021-09-12T12:10:15Z</time>
      </trkpt>
      <trkpt lat="44.11356" lon="5.23575">
        <ele>474.2</ele>
        <time>2021-09-12T12:10:16Z</time>
      </trkpt>
      <trkpt lat="44.11363" lon="5.23571">
        <ele>472.8</ele>
        <time>2021-09-12T12:10:17Z</time>
      </trkpt>
      <trkpt lat="44.11369" lon="5.23567">
        <ele>471.4</ele>
        <time>2021-09-12T12:10:18Z</time>
      </trkpt>
      <trkpt lat="44.11375" lon="5.23564">
        <ele>470.2</ele>
        <time>2021-09-12T12:10:19Z</time>
      </trkpt>
      <trkpt lat="44.11386" lon="5.23558">
        <ele>468.4</ele>
        <time>2021-09-12T12:10:21Z</time>
      </trkpt>
      <trkpt lat="44.11399" lon="5.23551">
        <ele>467.2</ele>
        <time>2021-09-12T12:10:23Z</time>
      </trkpt>
      <trkpt lat="44.11407" lon="5.23547">
        <ele>466</ele>
        <time>2021-09-12T12:10:24Z</time>
      </trkpt>
      <trkpt lat="44.11414" lon="5.23542">
        <ele>464.8</ele>
        <time>2021-09-12T12:10:25Z</time>
      </trkpt>
      <trkpt lat="44.11423" lon="5.23537">
        <ele>462.8</ele>
        <time>2021-09-12T12:10:26Z</time>
      </trkpt>
      <trkpt lat="44.11431" lon="5.23533">
        <ele>461</ele>
        <time>2021-09-12T12:10:27Z</time>
      </trkpt>
      <trkpt lat="44.11438" lon="5.2353">
        <ele>459.6</ele>
        <time>2021-09-12T12:10:28Z</time>
      </trkpt>
      <trkpt lat="44.11444" lon="5.23528">
        <ele>458.6</ele>
        <time>2021-09-12T12:10:29Z</time>
      </trkpt>
      <trkpt lat="44.11451" lon="5.23534">
        <ele>457.4</ele>
        <time>2021-09-12T12:10:31Z</time>
      </trkpt>
      <trkpt lat="44.11485" lon="5.23554">
        <ele>458.4</ele>
        <time>2021-09-12T12:10:42Z</time>
      </trkpt>
      <trkpt lat="44.11508" lon="5.23504">
        <ele>457</ele>
        <time>2021-09-12T12:10:50Z</time>
      </trkpt>
      <trkpt lat="44.11515" lon="5.23485">
        <ele>455.2</ele>
        <time>2021-09-12T12:10:52Z</time>
      </trkpt>
      <trkpt lat="44.11522" lon="5.23466">
        <ele>454</ele>
        <time>2021-09-12T12:10:54Z</time>
      </trkpt>
      <trkpt lat="44.11529" lon="5.23448">
        <ele>452.6</ele>
        <time>2021-09-12T12:10:56Z</time>
      </trkpt>
      <trkpt lat="44.11536" lon="5.2343">
        <ele>451.4</ele>
        <time>2021-09-12T12:10:58Z</time>
      </trkpt>
      <trkpt lat="44.11546" lon="5.23402">
        <ele>450.2</ele>
        <time>2021-09-12T12:11:01Z</time>
      </trkpt>
      <trkpt lat="44.11556" lon="5.23373">
        <ele>449</ele>
        <time>2021-09-12T12:11:04Z</time>
      </trkpt>
      <trkpt lat="44.11562" lon="5.23353">
        <ele>447.8</ele>
        <time>2021-09-12T12:11:06Z</time>
      </trkpt>
      <trkpt lat="44.11569" lon="5.23321">
        <ele>446.6</ele>
        <time>2021-09-12T12:11:09Z</time>
      </trkpt>
      <trkpt lat="44.11572" lon="5.2329">
        <ele>445.2</ele>
        <time>2021-09-12T12:11:12Z</time>
      </trkpt>
      <trkpt lat="44.11573" lon="5.23259">
        <ele>444</ele>
        <time>2021-09-12T12:11:15Z</time>
      </trkpt>
      <trkpt lat="44.11574" lon="5.23225">
        <ele>442.8</ele>
        <time>2021-09-12T12:11:18Z</time>
      </trkpt>
      <trkpt lat="44.11574" lon="5.23201">
        <ele>441.8</ele>
        <time>2021-09-12T12:11:20Z</time>
      </trkpt>
      <trkpt lat="44.11576" lon="5.23166">
        <ele>440.2</ele>
        <time>2021-09-12T12:11:23Z</time>
      </trkpt>
      <trkpt lat="44.11578" lon="5.23142">
        <ele>438.8</ele>
        <time>2021-09-12T12:11:25Z</time>
      </trkpt>
      <trkpt lat="44.11581" lon="5.23106">
        <ele>437.4</ele>
        <time>2021-09-12T12:11:28Z</time>
      </trkpt>
      <trkpt lat="44.11584" lon="5.23081">
        <ele>435.4</ele>
        <time>2021-09-12T12:11:30Z</time>
      </trkpt>
      <trkpt lat="44.11585" lon="5.23068">
        <ele>434.4</ele>
        <time>2021-09-12T12:11:31Z</time>
      </trkpt>
      <trkpt lat="44.11589" lon="5.23043">
        <ele>433.2</ele>
        <time>2021-09-12T12:11:33Z</time>
      </trkpt>
      <trkpt lat="44.11593" lon="5.23018">
        <ele>432</ele>
        <time>2021-09-12T12:11:35Z</time>
      </trkpt>
      <trkpt lat="44.11597" lon="5.22994">
        <ele>430.2</ele>
        <time>2021-09-12T12:11:37Z</time>
      </trkpt>
      <trkpt lat="44.11602" lon="5.2297">
        <ele>428.8</ele>
        <time>2021-09-12T12:11:39Z</time>
      </trkpt>
      <trkpt lat="44.11608" lon="5.22947">
        <ele>428.2</ele>
        <time>2021-09-12T12:11:41Z</time>
      </trkpt>
      <trkpt lat="44.11628" lon="5.22907">
        <ele>427.8</ele>
        <time>2021-09-12T12:11:45Z</time>
      </trkpt>
      <trkpt lat="44.11653" lon="5.22862">
        <ele>426.6</ele>
        <time>2021-09-12T12:11:50Z</time>
      </trkpt>
      <trkpt lat="44.11677" lon="5.2281">
        <ele>427.8</ele>
        <time>2021-09-12T12:11:57Z</time>
      </trkpt>
      <trkpt lat="44.1171" lon="5.22757">
        <ele>426.8</ele>
        <time>2021-09-12T12:12:05Z</time>
      </trkpt>
      <trkpt lat="44.1172" lon="5.22742">
        <ele>425.8</ele>
        <time>2021-09-12T12:12:07Z</time>
      </trkpt>
      <trkpt lat="44.11735" lon="5.22722">
        <ele>424.6</ele>
        <time>2021-09-12T12:12:10Z</time>
      </trkpt>
      <trkpt lat="44.11778" lon="5.22685">
        <ele>425.8</ele>
        <time>2021-09-12T12:12:20Z</time>
      </trkpt>
      <trkpt lat="44.11787" lon="5.22667">
        <ele>427.2</ele>
        <time>2021-09-12T12:12:24Z</time>
      </trkpt>
      <trkpt lat="44.11793" lon="5.2265">
        <ele>428.2</ele>
        <time>2021-09-12T12:12:28Z</time>
      </trkpt>
      <trkpt lat="44.11799" lon="5.22635">
        <ele>429.6</ele>
        <time>2021-09-12T12:12:32Z</time>
      </trkpt>
      <trkpt lat="44.11806" lon="5.22616">
        <ele>430.6</ele>
        <time>2021-09-12T12:12:37Z</time>
      </trkpt>
      <trkpt lat="44.11811" lon="5.226">
        <ele>432</ele>
        <time>2021-09-12T12:12:41Z</time>
      </trkpt>
      <trkpt lat="44.11815" lon="5.22589">
        <ele>433</ele>
        <time>2021-09-12T12:12:44Z</time>
      </trkpt>
      <trkpt lat="44.11829" lon="5.22553">
        <ele>434.2</ele>
        <time>2021-09-12T12:12:53Z</time>
      </trkpt>
      <trkpt lat="44.11858" lon="5.22499">
        <ele>433</ele>
        <time>2021-09-12T12:13:04Z</time>
      </trkpt>
      <trkpt lat="44.1188" lon="5.2247">
        <ele>432.8</ele>
        <time>2021-09-12T12:13:10Z</time>
      </trkpt>
      <trkpt lat="44.11903" lon="5.22448">
        <ele>432</ele>
        <time>2021-09-12T12:13:15Z</time>
      </trkpt>
      <trkpt lat="44.11922" lon="5.22429">
        <ele>432</ele>
        <time>2021-09-12T12:13:20Z</time>
      </trkpt>
      <trkpt lat="44.11953" lon="5.22398">
        <ele>432.8</ele>
        <time>2021-09-12T12:13:28Z</time>
      </trkpt>
      <trkpt lat="44.11975" lon="5.22375">
        <ele>432.8</ele>
        <time>2021-09-12T12:13:34Z</time>
      </trkpt>
      <trkpt lat="44.11985" lon="5.22349">
        <ele>433.2</ele>
        <time>2021-09-12T12:13:40Z</time>
      </trkpt>
      <trkpt lat="44.11985" lon="5.22322">
        <ele>433.2</ele>
        <time>2021-09-12T12:13:51Z</time>
      </trkpt>
      <trkpt lat="44.11993" lon="5.22301">
        <ele>432</ele>
        <time>2021-09-12T12:13:56Z</time>
      </trkpt>
      <trkpt lat="44.11994" lon="5.22292">
        <ele>431.2</ele>
        <time>2021-09-12T12:13:59Z</time>
      </trkpt>
      <trkpt lat="44.11992" lon="5.22288">
        <ele>431</ele>
        <time>2021-09-12T12:14:00Z</time>
      </trkpt>
      <trkpt lat="44.11983" lon="5.22258">
        <ele>430</ele>
        <time>2021-09-12T12:14:11Z</time>
      </trkpt>
      <trkpt lat="44.11967" lon="5.22244">
        <ele>429</ele>
        <time>2021-09-12T12:14:15Z</time>
      </trkpt>
      <trkpt lat="44.11953" lon="5.2223">
        <ele>427.8</ele>
        <time>2021-09-12T12:14:18Z</time>
      </trkpt>
      <trkpt lat="44.11948" lon="5.22225">
        <ele>427</ele>
        <time>2021-09-12T12:14:19Z</time>
      </trkpt>
      <trkpt lat="44.11943" lon="5.2222">
        <ele>426</ele>
        <time>2021-09-12T12:14:20Z</time>
      </trkpt>
      <trkpt lat="44.11933" lon="5.22212">
        <ele>424.4</ele>
        <time>2021-09-12T12:14:22Z</time>
      </trkpt>
      <trkpt lat="44.11915" lon="5.222">
        <ele>423.4</ele>
        <time>2021-09-12T12:14:26Z</time>
      </trkpt>
      <trkpt lat="44.11902" lon="5.22196">
        <ele>422</ele>
        <time>2021-09-12T12:14:30Z</time>
      </trkpt>
      <trkpt lat="44.11894" lon="5.22198">
        <ele>421.6</ele>
        <time>2021-09-12T12:14:32Z</time>
      </trkpt>
      <trkpt lat="44.11884" lon="5.22199">
        <ele>421</ele>
        <time>2021-09-12T12:14:34Z</time>
      </trkpt>
      <trkpt lat="44.11867" lon="5.22202">
        <ele>419.8</ele>
        <time>2021-09-12T12:14:37Z</time>
      </trkpt>
      <trkpt lat="44.1185" lon="5.22208">
        <ele>418.6</ele>
        <time>2021-09-12T12:14:40Z</time>
      </trkpt>
      <trkpt lat="44.1184" lon="5.22212">
        <ele>418</ele>
        <time>2021-09-12T12:14:42Z</time>
      </trkpt>
      <trkpt lat="44.11831" lon="5.22206">
        <ele>417.6</ele>
        <time>2021-09-12T12:14:44Z</time>
      </trkpt>
      <trkpt lat="44.11805" lon="5.22177">
        <ele>416.2</ele>
        <time>2021-09-12T12:14:49Z</time>
      </trkpt>
      <trkpt lat="44.11794" lon="5.22163">
        <ele>414.6</ele>
        <time>2021-09-12T12:14:51Z</time>
      </trkpt>
      <trkpt lat="44.11789" lon="5.22155">
        <ele>413.8</ele>
        <time>2021-09-12T12:14:52Z</time>
      </trkpt>
      <trkpt lat="44.11784" lon="5.22147">
        <ele>413.2</ele>
        <time>2021-09-12T12:14:53Z</time>
      </trkpt>
      <trkpt lat="44.11777" lon="5.2213">
        <ele>412</ele>
        <time>2021-09-12T12:14:55Z</time>
      </trkpt>
      <trkpt lat="44.11762" lon="5.22086">
        <ele>411</ele>
        <time>2021-09-12T12:15:00Z</time>
      </trkpt>
      <trkpt lat="44.11751" lon="5.2205">
        <ele>410</ele>
        <time>2021-09-12T12:15:04Z</time>
      </trkpt>
      <trkpt lat="44.11743" lon="5.21999">
        <ele>408.8</ele>
        <time>2021-09-12T12:15:09Z</time>
      </trkpt>
      <trkpt lat="44.11735" lon="5.21969">
        <ele>407.4</ele>
        <time>2021-09-12T12:15:12Z</time>
      </trkpt>
      <trkpt lat="44.11729" lon="5.21948">
        <ele>407</ele>
        <time>2021-09-12T12:15:14Z</time>
      </trkpt>
      <trkpt lat="44.11716" lon="5.21919">
        <ele>406.2</ele>
        <time>2021-09-12T12:15:17Z</time>
      </trkpt>
      <trkpt lat="44.11705" lon="5.21886">
        <ele>404.4</ele>
        <time>2021-09-12T12:15:20Z</time>
      </trkpt>
      <trkpt lat="44.11697" lon="5.21864">
        <ele>402.6</ele>
        <time>2021-09-12T12:15:22Z</time>
      </trkpt>
      <trkpt lat="44.11693" lon="5.21852">
        <ele>401.8</ele>
        <time>2021-09-12T12:15:23Z</time>
      </trkpt>
      <trkpt lat="44.1169" lon="5.2184">
        <ele>401</ele>
        <time>2021-09-12T12:15:24Z</time>
      </trkpt>
      <trkpt lat="44.11685" lon="5.21817">
        <ele>399.4</ele>
        <time>2021-09-12T12:15:26Z</time>
      </trkpt>
      <trkpt lat="44.11681" lon="5.21794">
        <ele>397.6</ele>
        <time>2021-09-12T12:15:28Z</time>
      </trkpt>
      <trkpt lat="44.11678" lon="5.21774">
        <ele>396.6</ele>
        <time>2021-09-12T12:15:30Z</time>
      </trkpt>
      <trkpt lat="44.11677" lon="5.21765">
        <ele>396.2</ele>
        <time>2021-09-12T12:15:31Z</time>
      </trkpt>
      <trkpt lat="44.11678" lon="5.21755">
        <ele>396</ele>
        <time>2021-09-12T12:15:32Z</time>
      </trkpt>
      <trkpt lat="44.11681" lon="5.21735">
        <ele>395.6</ele>
        <time>2021-09-12T12:15:34Z</time>
      </trkpt>
      <trkpt lat="44.11685" lon="5.21712">
        <ele>395</ele>
        <time>2021-09-12T12:15:36Z</time>
      </trkpt>
      <trkpt lat="44.11691" lon="5.21688">
        <ele>393.6</ele>
        <time>2021-09-12T12:15:38Z</time>
      </trkpt>
      <trkpt lat="44.11695" lon="5.21665">
        <ele>391.8</ele>
        <time>2021-09-12T12:15:40Z</time>
      </trkpt>
      <trkpt lat="44.11699" lon="5.21641">
        <ele>390.2</ele>
        <time>2021-09-12T12:15:42Z</time>
      </trkpt>
      <trkpt lat="44.117" lon="5.2163">
        <ele>389.6</ele>
        <time>2021-09-12T12:15:43Z</time>
      </trkpt>
      <trkpt lat="44.11699" lon="5.21618">
        <ele>389.2</ele>
        <time>2021-09-12T12:15:44Z</time>
      </trkpt>
      <trkpt lat="44.11697" lon="5.21595">
        <ele>388</ele>
        <time>2021-09-12T12:15:46Z</time>
      </trkpt>
      <trkpt lat="44.11697" lon="5.21572">
        <ele>386.8</ele>
        <time>2021-09-12T12:15:48Z</time>
      </trkpt>
      <trkpt lat="44.11703" lon="5.21517">
        <ele>385.8</ele>
        <time>2021-09-12T12:15:53Z</time>
      </trkpt>
      <trkpt lat="44.11709" lon="5.21464">
        <ele>384.6</ele>
        <time>2021-09-12T12:15:58Z</time>
      </trkpt>
      <trkpt lat="44.11712" lon="5.21444">
        <ele>384.2</ele>
        <time>2021-09-12T12:16:00Z</time>
      </trkpt>
      <trkpt lat="44.11716" lon="5.21423">
        <ele>383.2</ele>
        <time>2021-09-12T12:16:02Z</time>
      </trkpt>
      <trkpt lat="44.11717" lon="5.21413">
        <ele>382.6</ele>
        <time>2021-09-12T12:16:03Z</time>
      </trkpt>
      <trkpt lat="44.11718" lon="5.21402">
        <ele>382</ele>
        <time>2021-09-12T12:16:04Z</time>
      </trkpt>
      <trkpt lat="44.1172" lon="5.2138">
        <ele>380.8</ele>
        <time>2021-09-12T12:16:06Z</time>
      </trkpt>
      <trkpt lat="44.11725" lon="5.21349">
        <ele>379.6</ele>
        <time>2021-09-12T12:16:09Z</time>
      </trkpt>
      <trkpt lat="44.11726" lon="5.21338">
        <ele>379.4</ele>
        <time>2021-09-12T12:16:10Z</time>
      </trkpt>
      <trkpt lat="44.11726" lon="5.21305">
        <ele>378.2</ele>
        <time>2021-09-12T12:16:13Z</time>
      </trkpt>
      <trkpt lat="44.11726" lon="5.21284">
        <ele>377.2</ele>
        <time>2021-09-12T12:16:15Z</time>
      </trkpt>
      <trkpt lat="44.11726" lon="5.21259">
        <ele>376.2</ele>
        <time>2021-09-12T12:16:18Z</time>
      </trkpt>
      <trkpt lat="44.11726" lon="5.21253">
        <ele>375.8</ele>
        <time>2021-09-12T12:16:19Z</time>
      </trkpt>
      <trkpt lat="44.11723" lon="5.21227">
        <ele>374.6</ele>
        <time>2021-09-12T12:16:25Z</time>
      </trkpt>
      <trkpt lat="44.11718" lon="5.21211">
        <ele>374.6</ele>
        <time>2021-09-12T12:16:32Z</time>
      </trkpt>
      <trkpt lat="44.11717" lon="5.2119">
        <ele>373.4</ele>
        <time>2021-09-12T12:16:36Z</time>
      </trkpt>
      <trkpt lat="44.11714" lon="5.21144">
        <ele>372.2</ele>
        <time>2021-09-12T12:16:43Z</time>
      </trkpt>
      <trkpt lat="44.11713" lon="5.21114">
        <ele>371</ele>
        <time>2021-09-12T12:16:47Z</time>
      </trkpt>
      <trkpt lat="44.11709" lon="5.21066">
        <ele>369.8</ele>
        <time>2021-09-12T12:16:53Z</time>
      </trkpt>
      <trkpt lat="44.11707" lon="5.21022">
        <ele>368.6</ele>
        <time>2021-09-12T12:16:58Z</time>
      </trkpt>
      <trkpt lat="44.11705" lon="5.20994">
        <ele>367.4</ele>
        <time>2021-09-12T12:17:01Z</time>
      </trkpt>
      <trkpt lat="44.11702" lon="5.20948">
        <ele>366.2</ele>
        <time>2021-09-12T12:17:06Z</time>
      </trkpt>
      <trkpt lat="44.11702" lon="5.2092">
        <ele>364.8</ele>
        <time>2021-09-12T12:17:09Z</time>
      </trkpt>
      <trkpt lat="44.11701" lon="5.20902">
        <ele>363.4</ele>
        <time>2021-09-12T12:17:11Z</time>
      </trkpt>
      <trkpt lat="44.11699" lon="5.2087">
        <ele>362.2</ele>
        <time>2021-09-12T12:17:15Z</time>
      </trkpt>
      <trkpt lat="44.11696" lon="5.20806">
        <ele>361.2</ele>
        <time>2021-09-12T12:17:23Z</time>
      </trkpt>
      <trkpt lat="44.11697" lon="5.20798">
        <ele>361</ele>
        <time>2021-09-12T12:17:24Z</time>
      </trkpt>
      <trkpt lat="44.117" lon="5.20785">
        <ele>360.8</ele>
        <time>2021-09-12T12:17:26Z</time>
      </trkpt>
      <trkpt lat="44.11708" lon="5.20768">
        <ele>360.6</ele>
        <time>2021-09-12T12:17:29Z</time>
      </trkpt>
      <trkpt lat="44.11714" lon="5.20761">
        <ele>360.6</ele>
        <time>2021-09-12T12:17:31Z</time>
      </trkpt>
      <trkpt lat="44.11751" lon="5.20724">
        <ele>360</ele>
        <time>2021-09-12T12:17:41Z</time>
      </trkpt>
      <trkpt lat="44.11789" lon="5.20682">
        <ele>360.6</ele>
        <time>2021-09-12T12:17:53Z</time>
      </trkpt>
      <trkpt lat="44.11796" lon="5.20676">
        <ele>361.4</ele>
        <time>2021-09-12T12:17:55Z</time>
      </trkpt>
      <trkpt lat="44.11821" lon="5.20652">
        <ele>362.6</ele>
        <time>2021-09-12T12:18:03Z</time>
      </trkpt>
      <trkpt lat="44.11837" lon="5.20629">
        <ele>363.6</ele>
        <time>2021-09-12T12:18:09Z</time>
      </trkpt>
      <trkpt lat="44.11875" lon="5.20577">
        <ele>364.2</ele>
        <time>2021-09-12T12:18:23Z</time>
      </trkpt>
      <trkpt lat="44.11881" lon="5.20567">
        <ele>364.4</ele>
        <time>2021-09-12T12:18:25Z</time>
      </trkpt>
      <trkpt lat="44.11918" lon="5.20511">
        <ele>362.8</ele>
        <time>2021-09-12T12:18:36Z</time>
      </trkpt>
      <trkpt lat="44.11921" lon="5.20506">
        <ele>363</ele>
        <time>2021-09-12T12:18:37Z</time>
      </trkpt>
      <trkpt lat="44.11933" lon="5.20473">
        <ele>362.6</ele>
        <time>2021-09-12T12:18:42Z</time>
      </trkpt>
      <trkpt lat="44.11936" lon="5.20466">
        <ele>362.4</ele>
        <time>2021-09-12T12:18:43Z</time>
      </trkpt>
      <trkpt lat="44.11942" lon="5.20447">
        <ele>361.6</ele>
        <time>2021-09-12T12:18:46Z</time>
      </trkpt>
      <trkpt lat="44.11944" lon="5.2044">
        <ele>361.4</ele>
        <time>2021-09-12T12:18:47Z</time>
      </trkpt>
      <trkpt lat="44.11965" lon="5.20398">
        <ele>360.4</ele>
        <time>2021-09-12T12:18:54Z</time>
      </trkpt>
      <trkpt lat="44.11974" lon="5.20378">
        <ele>359.8</ele>
        <time>2021-09-12T12:18:57Z</time>
      </trkpt>
      <trkpt lat="44.1198" lon="5.20363">
        <ele>359.2</ele>
        <time>2021-09-12T12:18:59Z</time>
      </trkpt>
      <trkpt lat="44.11988" lon="5.20339">
        <ele>358</ele>
        <time>2021-09-12T12:19:03Z</time>
      </trkpt>
      <trkpt lat="44.11994" lon="5.20328">
        <ele>357</ele>
        <time>2021-09-12T12:19:07Z</time>
      </trkpt>
      <trkpt lat="44.11994" lon="5.20328">
        <ele>355.6</ele>
        <time>2021-09-12T12:19:10Z</time>
      </trkpt>
      <trkpt lat="44.11999" lon="5.20319">
        <ele>355</ele>
        <time>2021-09-12T12:19:20Z</time>
      </trkpt>
      <trkpt lat="44.11999" lon="5.20309">
        <ele>354.4</ele>
        <time>2021-09-12T12:19:22Z</time>
      </trkpt>
      <trkpt lat="44.11997" lon="5.20281">
        <ele>352.8</ele>
        <time>2021-09-12T12:19:26Z</time>
      </trkpt>
      <trkpt lat="44.11995" lon="5.20255">
        <ele>351.6</ele>
        <time>2021-09-12T12:19:29Z</time>
      </trkpt>
      <trkpt lat="44.11993" lon="5.20228">
        <ele>350.2</ele>
        <time>2021-09-12T12:19:32Z</time>
      </trkpt>
      <trkpt lat="44.11991" lon="5.2021">
        <ele>349</ele>
        <time>2021-09-12T12:19:34Z</time>
      </trkpt>
      <trkpt lat="44.11989" lon="5.20183">
        <ele>348</ele>
        <time>2021-09-12T12:19:37Z</time>
      </trkpt>
      <trkpt lat="44.11987" lon="5.20167">
        <ele>347.6</ele>
        <time>2021-09-12T12:19:39Z</time>
      </trkpt>
      <trkpt lat="44.11992" lon="5.20155">
        <ele>347.2</ele>
        <time>2021-09-12T12:19:41Z</time>
      </trkpt>
      <trkpt lat="44.12011" lon="5.20138">
        <ele>346.8</ele>
        <time>2021-09-12T12:19:45Z</time>
      </trkpt>
      <trkpt lat="44.12025" lon="5.20127">
        <ele>346</ele>
        <time>2021-09-12T12:19:48Z</time>
      </trkpt>
      <trkpt lat="44.12034" lon="5.20125">
        <ele>345.8</ele>
        <time>2021-09-12T12:19:50Z</time>
      </trkpt>
      <trkpt lat="44.12043" lon="5.20131">
        <ele>345.8</ele>
        <time>2021-09-12T12:19:52Z</time>
      </trkpt>
      <trkpt lat="44.12072" lon="5.20169">
        <ele>345.6</ele>
        <time>2021-09-12T12:20:00Z</time>
      </trkpt>
      <trkpt lat="44.1208" lon="5.20173">
        <ele>345.8</ele>
        <time>2021-09-12T12:20:02Z</time>
      </trkpt>
      <trkpt lat="44.12096" lon="5.20173">
        <ele>345.6</ele>
        <time>2021-09-12T12:20:05Z</time>
      </trkpt>
      <trkpt lat="44.12127" lon="5.20164">
        <ele>344.8</ele>
        <time>2021-09-12T12:20:11Z</time>
      </trkpt>
      <trkpt lat="44.12161" lon="5.2015">
        <ele>345.8</ele>
        <time>2021-09-12T12:20:18Z</time>
      </trkpt>
      <trkpt lat="44.12172" lon="5.20149">
        <ele>346.8</ele>
        <time>2021-09-12T12:20:22Z</time>
      </trkpt>
      <trkpt lat="44.12173" lon="5.2015">
        <ele>347.4</ele>
        <time>2021-09-12T12:20:23Z</time>
      </trkpt>
      <trkpt lat="44.12175" lon="5.20153">
        <ele>348</ele>
        <time>2021-09-12T12:20:25Z</time>
      </trkpt>
      <trkpt lat="44.12176" lon="5.20155">
        <ele>348.4</ele>
        <time>2021-09-12T12:20:39Z</time>
      </trkpt>
      <trkpt lat="44.12188" lon="5.20154">
        <ele>348.8</ele>
        <time>2021-09-12T12:22:03Z</time>
      </trkpt>
      <trkpt lat="44.12203" lon="5.20151">
        <ele>348.2</ele>
        <time>2021-09-12T12:22:07Z</time>
      </trkpt>
      <trkpt lat="44.12256" lon="5.20147">
        <ele>347.4</ele>
        <time>2021-09-12T12:22:23Z</time>
      </trkpt>
      <trkpt lat="44.12283" lon="5.20129">
        <ele>346.8</ele>
        <time>2021-09-12T12:22:31Z</time>
      </trkpt>
      <trkpt lat="44.12287" lon="5.20127">
        <ele>346.4</ele>
        <time>2021-09-12T12:22:32Z</time>
      </trkpt>
      <trkpt lat="44.12295" lon="5.20124">
        <ele>345.6</ele>
        <time>2021-09-12T12:22:34Z</time>
      </trkpt>
      <trkpt lat="44.12312" lon="5.2012">
        <ele>344.8</ele>
        <time>2021-09-12T12:22:38Z</time>
      </trkpt>
      <trkpt lat="44.12317" lon="5.20118">
        <ele>344.6</ele>
        <time>2021-09-12T12:22:39Z</time>
      </trkpt>
      <trkpt lat="44.12363" lon="5.20106">
        <ele>343.4</ele>
        <time>2021-09-12T12:22:49Z</time>
      </trkpt>
      <trkpt lat="44.12379" lon="5.20101">
        <ele>342.8</ele>
        <time>2021-09-12T12:22:52Z</time>
      </trkpt>
      <trkpt lat="44.12388" lon="5.20093">
        <ele>342.6</ele>
        <time>2021-09-12T12:22:54Z</time>
      </trkpt>
      <trkpt lat="44.12392" lon="5.20088">
        <ele>342.4</ele>
        <time>2021-09-12T12:22:55Z</time>
      </trkpt>
      <trkpt lat="44.12406" lon="5.20061">
        <ele>341.2</ele>
        <time>2021-09-12T12:22:59Z</time>
      </trkpt>
      <trkpt lat="44.12417" lon="5.20049">
        <ele>340.6</ele>
        <time>2021-09-12T12:23:01Z</time>
      </trkpt>
      <trkpt lat="44.12429" lon="5.20041">
        <ele>340.2</ele>
        <time>2021-09-12T12:23:03Z</time>
      </trkpt>
      <trkpt lat="44.1244" lon="5.20039">
        <ele>339.8</ele>
        <time>2021-09-12T12:23:05Z</time>
      </trkpt>
      <trkpt lat="44.1245" lon="5.20033">
        <ele>339.6</ele>
        <time>2021-09-12T12:23:07Z</time>
      </trkpt>
      <trkpt lat="44.12481" lon="5.20014">
        <ele>339</ele>
        <time>2021-09-12T12:23:13Z</time>
      </trkpt>
      <trkpt lat="44.12496" lon="5.20004">
        <ele>338</ele>
        <time>2021-09-12T12:23:16Z</time>
      </trkpt>
      <trkpt lat="44.12546" lon="5.19974">
        <ele>337</ele>
        <time>2021-09-12T12:23:26Z</time>
      </trkpt>
      <trkpt lat="44.1255" lon="5.1997">
        <ele>336.8</ele>
        <time>2021-09-12T12:23:27Z</time>
      </trkpt>
      <trkpt lat="44.12554" lon="5.19966">
        <ele>336.6</ele>
        <time>2021-09-12T12:23:28Z</time>
      </trkpt>
      <trkpt lat="44.12567" lon="5.19941">
        <ele>336.4</ele>
        <time>2021-09-12T12:23:33Z</time>
      </trkpt>
      <trkpt lat="44.12572" lon="5.19929">
        <ele>336.6</ele>
        <time>2021-09-12T12:23:35Z</time>
      </trkpt>
      <trkpt lat="44.12619" lon="5.19888">
        <ele>337.2</ele>
        <time>2021-09-12T12:23:46Z</time>
      </trkpt>
      <trkpt lat="44.12674" lon="5.19866">
        <ele>337.2</ele>
        <time>2021-09-12T12:23:59Z</time>
      </trkpt>
      <trkpt lat="44.12731" lon="5.19847">
        <ele>336</ele>
        <time>2021-09-12T12:24:11Z</time>
      </trkpt>
      <trkpt lat="44.12746" lon="5.19843">
        <ele>335.6</ele>
        <time>2021-09-12T12:24:14Z</time>
      </trkpt>
      <trkpt lat="44.12779" lon="5.19834">
        <ele>335.2</ele>
        <time>2021-09-12T12:24:21Z</time>
      </trkpt>
      <trkpt lat="44.12835" lon="5.19822">
        <ele>335.2</ele>
        <time>2021-09-12T12:24:33Z</time>
      </trkpt>
      <trkpt lat="44.12874" lon="5.19808">
        <ele>335.6</ele>
        <time>2021-09-12T12:24:46Z</time>
      </trkpt>
      <trkpt lat="44.12871" lon="5.19766">
        <ele>334.4</ele>
        <time>2021-09-12T12:24:55Z</time>
      </trkpt>
      <trkpt lat="44.12869" lon="5.19752">
        <ele>333.6</ele>
        <time>2021-09-12T12:24:57Z</time>
      </trkpt>
      <trkpt lat="44.12869" lon="5.19745">
        <ele>333.4</ele>
        <time>2021-09-12T12:24:58Z</time>
      </trkpt>
      <trkpt lat="44.12869" lon="5.19738">
        <ele>333.2</ele>
        <time>2021-09-12T12:24:59Z</time>
      </trkpt>
      <trkpt lat="44.12871" lon="5.1971">
        <ele>332.4</ele>
        <time>2021-09-12T12:25:03Z</time>
      </trkpt>
      <trkpt lat="44.12874" lon="5.19702">
        <ele>332</ele>
        <time>2021-09-12T12:25:04Z</time>
      </trkpt>
      <trkpt lat="44.12885" lon="5.19672">
        <ele>331</ele>
        <time>2021-09-12T12:25:08Z</time>
      </trkpt>
      <trkpt lat="44.12893" lon="5.1965">
        <ele>329.6</ele>
        <time>2021-09-12T12:25:11Z</time>
      </trkpt>
      <trkpt lat="44.1292" lon="5.19584">
        <ele>329.6</ele>
        <time>2021-09-12T12:25:21Z</time>
      </trkpt>
      <trkpt lat="44.12948" lon="5.19517">
        <ele>329.2</ele>
        <time>2021-09-12T12:25:31Z</time>
      </trkpt>
      <trkpt lat="44.12952" lon="5.19503">
        <ele>329</ele>
        <time>2021-09-12T12:25:33Z</time>
      </trkpt>
      <trkpt lat="44.12958" lon="5.19473">
        <ele>328.4</ele>
        <time>2021-09-12T12:25:37Z</time>
      </trkpt>
      <trkpt lat="44.12964" lon="5.19427">
        <ele>327.6</ele>
        <time>2021-09-12T12:25:43Z</time>
      </trkpt>
      <trkpt lat="44.12965" lon="5.1941">
        <ele>327.4</ele>
        <time>2021-09-12T12:25:45Z</time>
      </trkpt>
      <trkpt lat="44.12969" lon="5.19361">
        <ele>326.4</ele>
        <time>2021-09-12T12:25:51Z</time>
      </trkpt>
      <trkpt lat="44.12971" lon="5.19331">
        <ele>325.2</ele>
        <time>2021-09-12T12:25:55Z</time>
      </trkpt>
      <trkpt lat="44.12973" lon="5.19255">
        <ele>324.8</ele>
        <time>2021-09-12T12:26:05Z</time>
      </trkpt>
      <trkpt lat="44.12957" lon="5.19182">
        <ele>324.6</ele>
        <time>2021-09-12T12:26:15Z</time>
      </trkpt>
      <trkpt lat="44.12946" lon="5.19147">
        <ele>324.2</ele>
        <time>2021-09-12T12:26:20Z</time>
      </trkpt>
      <trkpt lat="44.12936" lon="5.19103">
        <ele>323</ele>
        <time>2021-09-12T12:26:26Z</time>
      </trkpt>
      <trkpt lat="44.12933" lon="5.19072">
        <ele>322.2</ele>
        <time>2021-09-12T12:26:30Z</time>
      </trkpt>
      <trkpt lat="44.12941" lon="5.19007">
        <ele>322.6</ele>
        <time>2021-09-12T12:26:39Z</time>
      </trkpt>
      <trkpt lat="44.1294" lon="5.18993">
        <ele>322.4</ele>
        <time>2021-09-12T12:26:41Z</time>
      </trkpt>
      <trkpt lat="44.12936" lon="5.18979">
        <ele>322.2</ele>
        <time>2021-09-12T12:26:43Z</time>
      </trkpt>
      <trkpt lat="44.12928" lon="5.18966">
        <ele>321.8</ele>
        <time>2021-09-12T12:26:45Z</time>
      </trkpt>
      <trkpt lat="44.12914" lon="5.18945">
        <ele>320.4</ele>
        <time>2021-09-12T12:26:48Z</time>
      </trkpt>
      <trkpt lat="44.12899" lon="5.18922">
        <ele>319</ele>
        <time>2021-09-12T12:26:51Z</time>
      </trkpt>
      <trkpt lat="44.12884" lon="5.18899">
        <ele>317.8</ele>
        <time>2021-09-12T12:26:54Z</time>
      </trkpt>
      <trkpt lat="44.12871" lon="5.18877">
        <ele>316.8</ele>
        <time>2021-09-12T12:26:57Z</time>
      </trkpt>
      <trkpt lat="44.12851" lon="5.18842">
        <ele>316.6</ele>
        <time>2021-09-12T12:27:02Z</time>
      </trkpt>
      <trkpt lat="44.12819" lon="5.18815">
        <ele>316.6</ele>
        <time>2021-09-12T12:27:08Z</time>
      </trkpt>
      <trkpt lat="44.12806" lon="5.18811">
        <ele>316.6</ele>
        <time>2021-09-12T12:27:10Z</time>
      </trkpt>
      <trkpt lat="44.12775" lon="5.18804">
        <ele>315.6</ele>
        <time>2021-09-12T12:27:15Z</time>
      </trkpt>
      <trkpt lat="44.12758" lon="5.188">
        <ele>314.6</ele>
        <time>2021-09-12T12:27:18Z</time>
      </trkpt>
      <trkpt lat="44.1272" lon="5.18789">
        <ele>314.2</ele>
        <time>2021-09-12T12:27:25Z</time>
      </trkpt>
      <trkpt lat="44.12706" lon="5.1878">
        <ele>314</ele>
        <time>2021-09-12T12:27:28Z</time>
      </trkpt>
      <trkpt lat="44.12685" lon="5.18754">
        <ele>313.8</ele>
        <time>2021-09-12T12:27:33Z</time>
      </trkpt>
      <trkpt lat="44.12658" lon="5.18689">
        <ele>313.8</ele>
        <time>2021-09-12T12:27:43Z</time>
      </trkpt>
      <trkpt lat="44.12652" lon="5.1866">
        <ele>313.4</ele>
        <time>2021-09-12T12:27:47Z</time>
      </trkpt>
      <trkpt lat="44.12648" lon="5.18629">
        <ele>312.2</ele>
        <time>2021-09-12T12:27:51Z</time>
      </trkpt>
      <trkpt lat="44.12645" lon="5.18605">
        <ele>311.4</ele>
        <time>2021-09-12T12:27:54Z</time>
      </trkpt>
      <trkpt lat="44.12645" lon="5.18589">
        <ele>311</ele>
        <time>2021-09-12T12:27:56Z</time>
      </trkpt>
      <trkpt lat="44.12649" lon="5.1852">
        <ele>310.8</ele>
        <time>2021-09-12T12:28:05Z</time>
      </trkpt>
      <trkpt lat="44.1265" lon="5.18514">
        <ele>310.8</ele>
        <time>2021-09-12T12:28:06Z</time>
      </trkpt>
      <trkpt lat="44.12673" lon="5.18444">
        <ele>311</ele>
        <time>2021-09-12T12:28:17Z</time>
      </trkpt>
      <trkpt lat="44.12686" lon="5.18403">
        <ele>309.8</ele>
        <time>2021-09-12T12:28:23Z</time>
      </trkpt>
      <trkpt lat="44.1269" lon="5.1839">
        <ele>309.8</ele>
        <time>2021-09-12T12:28:25Z</time>
      </trkpt>
      <trkpt lat="44.1269" lon="5.18376">
        <ele>310.2</ele>
        <time>2021-09-12T12:28:27Z</time>
      </trkpt>
      <trkpt lat="44.12686" lon="5.18363">
        <ele>310.2</ele>
        <time>2021-09-12T12:28:29Z</time>
      </trkpt>
      <trkpt lat="44.12678" lon="5.1835">
        <ele>310</ele>
        <time>2021-09-12T12:28:31Z</time>
      </trkpt>
      <trkpt lat="44.12669" lon="5.18338">
        <ele>308.8</ele>
        <time>2021-09-12T12:28:33Z</time>
      </trkpt>
      <trkpt lat="44.12658" lon="5.18328">
        <ele>307.6</ele>
        <time>2021-09-12T12:28:35Z</time>
      </trkpt>
      <trkpt lat="44.12648" lon="5.18319">
        <ele>307.2</ele>
        <time>2021-09-12T12:28:37Z</time>
      </trkpt>
      <trkpt lat="44.12643" lon="5.18306">
        <ele>306.8</ele>
        <time>2021-09-12T12:28:39Z</time>
      </trkpt>
      <trkpt lat="44.12644" lon="5.1829">
        <ele>306.4</ele>
        <time>2021-09-12T12:28:41Z</time>
      </trkpt>
      <trkpt lat="44.12646" lon="5.18265">
        <ele>305.4</ele>
        <time>2021-09-12T12:28:44Z</time>
      </trkpt>
      <trkpt lat="44.12647" lon="5.18238">
        <ele>304.4</ele>
        <time>2021-09-12T12:28:47Z</time>
      </trkpt>
      <trkpt lat="44.12648" lon="5.18212">
        <ele>303.2</ele>
        <time>2021-09-12T12:28:50Z</time>
      </trkpt>
      <trkpt lat="44.12648" lon="5.18204">
        <ele>303</ele>
        <time>2021-09-12T12:28:51Z</time>
      </trkpt>
      <trkpt lat="44.12644" lon="5.18186">
        <ele>302.8</ele>
        <time>2021-09-12T12:28:53Z</time>
      </trkpt>
      <trkpt lat="44.1264" lon="5.18169">
        <ele>301.8</ele>
        <time>2021-09-12T12:28:55Z</time>
      </trkpt>
      <trkpt lat="44.12636" lon="5.1815">
        <ele>300.6</ele>
        <time>2021-09-12T12:28:57Z</time>
      </trkpt>
      <trkpt lat="44.12631" lon="5.18132">
        <ele>300.2</ele>
        <time>2021-09-12T12:28:59Z</time>
      </trkpt>
      <trkpt lat="44.12622" lon="5.18117">
        <ele>299.4</ele>
        <time>2021-09-12T12:29:01Z</time>
      </trkpt>
      <trkpt lat="44.12603" lon="5.18101">
        <ele>298.4</ele>
        <time>2021-09-12T12:29:04Z</time>
      </trkpt>
      <trkpt lat="44.12586" lon="5.18087">
        <ele>297.2</ele>
        <time>2021-09-12T12:29:07Z</time>
      </trkpt>
      <trkpt lat="44.12568" lon="5.18072">
        <ele>296.2</ele>
        <time>2021-09-12T12:29:10Z</time>
      </trkpt>
      <trkpt lat="44.12532" lon="5.18033">
        <ele>296.2</ele>
        <time>2021-09-12T12:29:21Z</time>
      </trkpt>
      <trkpt lat="44.12548" lon="5.18">
        <ele>297.2</ele>
        <time>2021-09-12T12:29:32Z</time>
      </trkpt>
      <trkpt lat="44.12549" lon="5.18">
        <ele>297.2</ele>
        <time>2021-09-12T12:29:33Z</time>
      </trkpt>
      <trkpt lat="44.12561" lon="5.18005">
        <ele>298.4</ele>
        <time>2021-09-12T12:30:14Z</time>
      </trkpt>
      <trkpt lat="44.12561" lon="5.18004">
        <ele>298.4</ele>
        <time>2021-09-12T12:30:22Z</time>
      </trkpt>
      <trkpt lat="44.12558" lon="5.18008">
        <ele>297.8</ele>
        <time>2021-09-12T12:32:44Z</time>
      </trkpt>
      <trkpt lat="44.12559" lon="5.18009">
        <ele>297.8</ele>
        <time>2021-09-12T12:32:50Z</time>
      </trkpt>
      <trkpt lat="44.12559" lon="5.18005">
        <ele>297.8</ele>
        <time>2021-09-12T12:32:54Z</time>
      </trkpt>
    </trkseg>
  </trk>
</gpx>